<?xml version="1.0" encoding="UTF-8" standalone="no" ?>
<gpx xmlns="http://www.topografix.com/GPX/1/1" xmlns:xsi="http://www.w3.org/2001/XMLSchema-instance" xsi:schemaLocation="http://www.topografix.com/GPX/1/1 http://www.topografix.com/GPX/1/1/gpx.xsd" version="1.1" creator="VisuGPX - https://www.visugpx.com">
  <metadata>
    <name>ASLPM marche Gué de Velluire 1 février 2016</name>
    <desc><![CDATA[ASLPM marche Gué de Velluire le 1er Février 2016
]]></desc>
  </metadata>
  <trk>
    <name><![CDATA[Le Gué-de-Velluire Course à pied]]></name>
    <trkseg>
      <trkpt lat="46.37214" lon="-0.9183">
        <ele>18.200000762939</ele>
        <time>2016-02-01T08:01:40.000Z</time>
      </trkpt>
      <trkpt lat="46.37213" lon="-0.9183">
        <ele>18.200000762939</ele>
        <time>2016-02-01T08:01:41.000Z</time>
      </trkpt>
      <trkpt lat="46.37215" lon="-0.91831">
        <ele>18.200000762939</ele>
        <time>2016-02-01T08:01:42.000Z</time>
      </trkpt>
      <trkpt lat="46.37214" lon="-0.91832">
        <ele>18.200000762939</ele>
        <time>2016-02-01T08:01:43.000Z</time>
      </trkpt>
      <trkpt lat="46.37214" lon="-0.91833">
        <ele>18.200000762939</ele>
        <time>2016-02-01T08:01:44.000Z</time>
      </trkpt>
      <trkpt lat="46.37212" lon="-0.91833">
        <ele>18.200000762939</ele>
        <time>2016-02-01T08:01:47.000Z</time>
      </trkpt>
      <trkpt lat="46.37207" lon="-0.91833">
        <ele>18.60000038147</ele>
        <time>2016-02-01T08:01:57.000Z</time>
      </trkpt>
      <trkpt lat="46.37205" lon="-0.91851">
        <ele>18</ele>
        <time>2016-02-01T08:02:12.000Z</time>
      </trkpt>
      <trkpt lat="46.3721" lon="-0.91857">
        <ele>17.39999961853</ele>
        <time>2016-02-01T08:02:21.000Z</time>
      </trkpt>
      <trkpt lat="46.37213" lon="-0.91856">
        <ele>17.39999961853</ele>
        <time>2016-02-01T08:02:25.000Z</time>
      </trkpt>
      <trkpt lat="46.37231" lon="-0.91849">
        <ele>16.39999961853</ele>
        <time>2016-02-01T08:02:43.000Z</time>
      </trkpt>
      <trkpt lat="46.37238" lon="-0.91845">
        <ele>16</ele>
        <time>2016-02-01T08:02:50.000Z</time>
      </trkpt>
      <trkpt lat="46.37239" lon="-0.91829">
        <ele>16.39999961853</ele>
        <time>2016-02-01T08:03:07.000Z</time>
      </trkpt>
      <trkpt lat="46.37249" lon="-0.91848">
        <ele>14.60000038147</ele>
        <time>2016-02-01T08:03:27.000Z</time>
      </trkpt>
      <trkpt lat="46.37251" lon="-0.91864">
        <ele>13.800000190735</ele>
        <time>2016-02-01T08:04:10.000Z</time>
      </trkpt>
      <trkpt lat="46.37254" lon="-0.91863">
        <ele>13.60000038147</ele>
        <time>2016-02-01T08:04:13.000Z</time>
      </trkpt>
      <trkpt lat="46.37258" lon="-0.91856">
        <ele>13.39999961853</ele>
        <time>2016-02-01T08:04:18.000Z</time>
      </trkpt>
      <trkpt lat="46.37269" lon="-0.91833">
        <ele>13</ele>
        <time>2016-02-01T08:04:30.000Z</time>
      </trkpt>
      <trkpt lat="46.3728" lon="-0.91812">
        <ele>12.60000038147</ele>
        <time>2016-02-01T08:04:49.000Z</time>
      </trkpt>
      <trkpt lat="46.37297" lon="-0.91799">
        <ele>11.800000190735</ele>
        <time>2016-02-01T08:05:07.000Z</time>
      </trkpt>
      <trkpt lat="46.37304" lon="-0.91791">
        <ele>12</ele>
        <time>2016-02-01T08:05:14.000Z</time>
      </trkpt>
      <trkpt lat="46.3732" lon="-0.91777">
        <ele>12.39999961853</ele>
        <time>2016-02-01T08:05:25.000Z</time>
      </trkpt>
      <trkpt lat="46.37338" lon="-0.91775">
        <ele>12.60000038147</ele>
        <time>2016-02-01T08:05:37.000Z</time>
      </trkpt>
      <trkpt lat="46.37343" lon="-0.91776">
        <ele>12.39999961853</ele>
        <time>2016-02-01T08:05:41.000Z</time>
      </trkpt>
      <trkpt lat="46.37357" lon="-0.91793">
        <ele>9</ele>
        <time>2016-02-01T08:05:57.000Z</time>
      </trkpt>
      <trkpt lat="46.37374" lon="-0.91803">
        <ele>6.8000001907349</ele>
        <time>2016-02-01T08:06:11.000Z</time>
      </trkpt>
      <trkpt lat="46.37392" lon="-0.91798">
        <ele>6.5999999046326</ele>
        <time>2016-02-01T08:06:24.000Z</time>
      </trkpt>
      <trkpt lat="46.37406" lon="-0.91796">
        <ele>6.4000000953674</ele>
        <time>2016-02-01T08:06:35.000Z</time>
      </trkpt>
      <trkpt lat="46.37412" lon="-0.91795">
        <ele>6</ele>
        <time>2016-02-01T08:06:41.000Z</time>
      </trkpt>
      <trkpt lat="46.37422" lon="-0.91794">
        <ele>6.1999998092651</ele>
        <time>2016-02-01T08:06:50.000Z</time>
      </trkpt>
      <trkpt lat="46.37439" lon="-0.91784">
        <ele>7</ele>
        <time>2016-02-01T08:07:03.000Z</time>
      </trkpt>
      <trkpt lat="46.37457" lon="-0.91777">
        <ele>7.5999999046326</ele>
        <time>2016-02-01T08:07:18.000Z</time>
      </trkpt>
      <trkpt lat="46.37474" lon="-0.91771">
        <ele>8</ele>
        <time>2016-02-01T08:07:31.000Z</time>
      </trkpt>
      <trkpt lat="46.37491" lon="-0.91761">
        <ele>8</ele>
        <time>2016-02-01T08:07:44.000Z</time>
      </trkpt>
      <trkpt lat="46.37509" lon="-0.91751">
        <ele>7.4000000953674</ele>
        <time>2016-02-01T08:08:00.000Z</time>
      </trkpt>
      <trkpt lat="46.37515" lon="-0.91747">
        <ele>7.1999998092651</ele>
        <time>2016-02-01T08:08:05.000Z</time>
      </trkpt>
      <trkpt lat="46.37528" lon="-0.91737">
        <ele>7</ele>
        <time>2016-02-01T08:08:16.000Z</time>
      </trkpt>
      <trkpt lat="46.37544" lon="-0.91725">
        <ele>6.8000001907349</ele>
        <time>2016-02-01T08:08:31.000Z</time>
      </trkpt>
      <trkpt lat="46.37557" lon="-0.91717">
        <ele>6.4000000953674</ele>
        <time>2016-02-01T08:08:43.000Z</time>
      </trkpt>
      <trkpt lat="46.37572" lon="-0.91704">
        <ele>6.1999998092651</ele>
        <time>2016-02-01T08:08:58.000Z</time>
      </trkpt>
      <trkpt lat="46.37576" lon="-0.91702">
        <ele>6.1999998092651</ele>
        <time>2016-02-01T08:09:01.000Z</time>
      </trkpt>
      <trkpt lat="46.37593" lon="-0.91692">
        <ele>5.5999999046326</ele>
        <time>2016-02-01T08:09:15.000Z</time>
      </trkpt>
      <trkpt lat="46.37612" lon="-0.91685">
        <ele>5.1999998092651</ele>
        <time>2016-02-01T08:09:28.000Z</time>
      </trkpt>
      <trkpt lat="46.3763" lon="-0.91683">
        <ele>4.8000001907349</ele>
        <time>2016-02-01T08:09:43.000Z</time>
      </trkpt>
      <trkpt lat="46.3764" lon="-0.91681">
        <ele>4.8000001907349</ele>
        <time>2016-02-01T08:09:50.000Z</time>
      </trkpt>
      <trkpt lat="46.37659" lon="-0.91676">
        <ele>4.8000001907349</ele>
        <time>2016-02-01T08:10:04.000Z</time>
      </trkpt>
      <trkpt lat="46.37677" lon="-0.9167">
        <ele>5</ele>
        <time>2016-02-01T08:10:18.000Z</time>
      </trkpt>
      <trkpt lat="46.37695" lon="-0.91665">
        <ele>5</ele>
        <time>2016-02-01T08:10:32.000Z</time>
      </trkpt>
      <trkpt lat="46.37714" lon="-0.91665">
        <ele>5</ele>
        <time>2016-02-01T08:10:46.000Z</time>
      </trkpt>
      <trkpt lat="46.37732" lon="-0.91664">
        <ele>4.8000001907349</ele>
        <time>2016-02-01T08:11:01.000Z</time>
      </trkpt>
      <trkpt lat="46.37751" lon="-0.91663">
        <ele>4.5999999046326</ele>
        <time>2016-02-01T08:11:15.000Z</time>
      </trkpt>
      <trkpt lat="46.37764" lon="-0.91663">
        <ele>4.4000000953674</ele>
        <time>2016-02-01T08:11:25.000Z</time>
      </trkpt>
      <trkpt lat="46.37769" lon="-0.91664">
        <ele>4.4000000953674</ele>
        <time>2016-02-01T08:11:29.000Z</time>
      </trkpt>
      <trkpt lat="46.37778" lon="-0.91664">
        <ele>4.1999998092651</ele>
        <time>2016-02-01T08:11:35.000Z</time>
      </trkpt>
      <trkpt lat="46.37793" lon="-0.91664">
        <ele>4.1999998092651</ele>
        <time>2016-02-01T08:11:47.000Z</time>
      </trkpt>
      <trkpt lat="46.37804" lon="-0.91664">
        <ele>4.1999998092651</ele>
        <time>2016-02-01T08:11:55.000Z</time>
      </trkpt>
      <trkpt lat="46.37823" lon="-0.91665">
        <ele>4.5999999046326</ele>
        <time>2016-02-01T08:12:08.000Z</time>
      </trkpt>
      <trkpt lat="46.37841" lon="-0.91667">
        <ele>5</ele>
        <time>2016-02-01T08:12:22.000Z</time>
      </trkpt>
      <trkpt lat="46.37859" lon="-0.91673">
        <ele>5.1999998092651</ele>
        <time>2016-02-01T08:12:37.000Z</time>
      </trkpt>
      <trkpt lat="46.37862" lon="-0.91673">
        <ele>5.4000000953674</ele>
        <time>2016-02-01T08:12:39.000Z</time>
      </trkpt>
      <trkpt lat="46.3788" lon="-0.91679">
        <ele>5.1999998092651</ele>
        <time>2016-02-01T08:12:53.000Z</time>
      </trkpt>
      <trkpt lat="46.37899" lon="-0.91685">
        <ele>5</ele>
        <time>2016-02-01T08:13:07.000Z</time>
      </trkpt>
      <trkpt lat="46.37907" lon="-0.91688">
        <ele>5.4000000953674</ele>
        <time>2016-02-01T08:13:13.000Z</time>
      </trkpt>
      <trkpt lat="46.37923" lon="-0.91693">
        <ele>6.5999999046326</ele>
        <time>2016-02-01T08:13:25.000Z</time>
      </trkpt>
      <trkpt lat="46.37941" lon="-0.91701">
        <ele>6.4000000953674</ele>
        <time>2016-02-01T08:13:39.000Z</time>
      </trkpt>
      <trkpt lat="46.37957" lon="-0.91712">
        <ele>5.5999999046326</ele>
        <time>2016-02-01T08:13:52.000Z</time>
      </trkpt>
      <trkpt lat="46.37963" lon="-0.91717">
        <ele>5.1999998092651</ele>
        <time>2016-02-01T08:13:57.000Z</time>
      </trkpt>
      <trkpt lat="46.37979" lon="-0.91731">
        <ele>4.5999999046326</ele>
        <time>2016-02-01T08:14:11.000Z</time>
      </trkpt>
      <trkpt lat="46.37995" lon="-0.91746">
        <ele>5</ele>
        <time>2016-02-01T08:14:25.000Z</time>
      </trkpt>
      <trkpt lat="46.3801" lon="-0.91762">
        <ele>5.4000000953674</ele>
        <time>2016-02-01T08:14:39.000Z</time>
      </trkpt>
      <trkpt lat="46.38026" lon="-0.91775">
        <ele>5.4000000953674</ele>
        <time>2016-02-01T08:14:53.000Z</time>
      </trkpt>
      <trkpt lat="46.38041" lon="-0.9179">
        <ele>5.1999998092651</ele>
        <time>2016-02-01T08:15:07.000Z</time>
      </trkpt>
      <trkpt lat="46.38058" lon="-0.91804">
        <ele>5</ele>
        <time>2016-02-01T08:15:21.000Z</time>
      </trkpt>
      <trkpt lat="46.38073" lon="-0.91821">
        <ele>5.5999999046326</ele>
        <time>2016-02-01T08:15:36.000Z</time>
      </trkpt>
      <trkpt lat="46.38087" lon="-0.91837">
        <ele>6.8000001907349</ele>
        <time>2016-02-01T08:15:50.000Z</time>
      </trkpt>
      <trkpt lat="46.38102" lon="-0.91853">
        <ele>8.1999998092651</ele>
        <time>2016-02-01T08:16:04.000Z</time>
      </trkpt>
      <trkpt lat="46.38116" lon="-0.9187">
        <ele>8</ele>
        <time>2016-02-01T08:16:18.000Z</time>
      </trkpt>
      <trkpt lat="46.38131" lon="-0.91888">
        <ele>7.8000001907349</ele>
        <time>2016-02-01T08:16:32.000Z</time>
      </trkpt>
      <trkpt lat="46.38142" lon="-0.91911">
        <ele>7.5999999046326</ele>
        <time>2016-02-01T08:16:47.000Z</time>
      </trkpt>
      <trkpt lat="46.38152" lon="-0.91933">
        <ele>7.1999998092651</ele>
        <time>2016-02-01T08:17:00.000Z</time>
      </trkpt>
      <trkpt lat="46.38164" lon="-0.91953">
        <ele>8</ele>
        <time>2016-02-01T08:17:13.000Z</time>
      </trkpt>
      <trkpt lat="46.38177" lon="-0.91974">
        <ele>7.4000000953674</ele>
        <time>2016-02-01T08:17:27.000Z</time>
      </trkpt>
      <trkpt lat="46.38187" lon="-0.91996">
        <ele>8.3999996185303</ele>
        <time>2016-02-01T08:17:41.000Z</time>
      </trkpt>
      <trkpt lat="46.38195" lon="-0.92021">
        <ele>8</ele>
        <time>2016-02-01T08:17:55.000Z</time>
      </trkpt>
      <trkpt lat="46.38202" lon="-0.92046">
        <ele>5.4000000953674</ele>
        <time>2016-02-01T08:18:08.000Z</time>
      </trkpt>
      <trkpt lat="46.38212" lon="-0.92068">
        <ele>4.4000000953674</ele>
        <time>2016-02-01T08:18:22.000Z</time>
      </trkpt>
      <trkpt lat="46.38229" lon="-0.92083">
        <ele>4</ele>
        <time>2016-02-01T08:18:36.000Z</time>
      </trkpt>
      <trkpt lat="46.38245" lon="-0.92094">
        <ele>4.1999998092651</ele>
        <time>2016-02-01T08:18:49.000Z</time>
      </trkpt>
      <trkpt lat="46.38262" lon="-0.92105">
        <ele>4.4000000953674</ele>
        <time>2016-02-01T08:19:03.000Z</time>
      </trkpt>
      <trkpt lat="46.3828" lon="-0.92116">
        <ele>4</ele>
        <time>2016-02-01T08:19:17.000Z</time>
      </trkpt>
      <trkpt lat="46.38297" lon="-0.92127">
        <ele>3.5999999046326</ele>
        <time>2016-02-01T08:19:31.000Z</time>
      </trkpt>
      <trkpt lat="46.38315" lon="-0.92136">
        <ele>3.2000000476837</ele>
        <time>2016-02-01T08:19:44.000Z</time>
      </trkpt>
      <trkpt lat="46.38333" lon="-0.92143">
        <ele>2.7999999523163</ele>
        <time>2016-02-01T08:19:58.000Z</time>
      </trkpt>
      <trkpt lat="46.38351" lon="-0.92147">
        <ele>2.5999999046326</ele>
        <time>2016-02-01T08:20:11.000Z</time>
      </trkpt>
      <trkpt lat="46.3837" lon="-0.92152">
        <ele>2.4000000953674</ele>
        <time>2016-02-01T08:20:26.000Z</time>
      </trkpt>
      <trkpt lat="46.38389" lon="-0.92151">
        <ele>2.2000000476837</ele>
        <time>2016-02-01T08:20:40.000Z</time>
      </trkpt>
      <trkpt lat="46.38407" lon="-0.92148">
        <ele>2</ele>
        <time>2016-02-01T08:20:52.000Z</time>
      </trkpt>
      <trkpt lat="46.38426" lon="-0.92144">
        <ele>2</ele>
        <time>2016-02-01T08:21:05.000Z</time>
      </trkpt>
      <trkpt lat="46.38444" lon="-0.92139">
        <ele>2</ele>
        <time>2016-02-01T08:21:19.000Z</time>
      </trkpt>
      <trkpt lat="46.38462" lon="-0.92133">
        <ele>2.2000000476837</ele>
        <time>2016-02-01T08:21:41.000Z</time>
      </trkpt>
      <trkpt lat="46.3848" lon="-0.92124">
        <ele>2.4000000953674</ele>
        <time>2016-02-01T08:21:54.000Z</time>
      </trkpt>
      <trkpt lat="46.38497" lon="-0.92118">
        <ele>2.2000000476837</ele>
        <time>2016-02-01T08:22:07.000Z</time>
      </trkpt>
      <trkpt lat="46.38514" lon="-0.92108">
        <ele>2</ele>
        <time>2016-02-01T08:22:20.000Z</time>
      </trkpt>
      <trkpt lat="46.38532" lon="-0.921">
        <ele>2</ele>
        <time>2016-02-01T08:22:34.000Z</time>
      </trkpt>
      <trkpt lat="46.38548" lon="-0.92087">
        <ele>2</ele>
        <time>2016-02-01T08:22:47.000Z</time>
      </trkpt>
      <trkpt lat="46.38564" lon="-0.92076">
        <ele>2</ele>
        <time>2016-02-01T08:23:00.000Z</time>
      </trkpt>
      <trkpt lat="46.38582" lon="-0.92065">
        <ele>1.7999999523163</ele>
        <time>2016-02-01T08:23:14.000Z</time>
      </trkpt>
      <trkpt lat="46.38597" lon="-0.92048">
        <ele>2</ele>
        <time>2016-02-01T08:23:28.000Z</time>
      </trkpt>
      <trkpt lat="46.38613" lon="-0.92033">
        <ele>2.2000000476837</ele>
        <time>2016-02-01T08:23:41.000Z</time>
      </trkpt>
      <trkpt lat="46.38628" lon="-0.92017">
        <ele>2.5999999046326</ele>
        <time>2016-02-01T08:23:55.000Z</time>
      </trkpt>
      <trkpt lat="46.38643" lon="-0.92002">
        <ele>3</ele>
        <time>2016-02-01T08:24:08.000Z</time>
      </trkpt>
      <trkpt lat="46.38657" lon="-0.91985">
        <ele>3.4000000953674</ele>
        <time>2016-02-01T08:24:21.000Z</time>
      </trkpt>
      <trkpt lat="46.38671" lon="-0.91966">
        <ele>3.5999999046326</ele>
        <time>2016-02-01T08:24:35.000Z</time>
      </trkpt>
      <trkpt lat="46.38683" lon="-0.91944">
        <ele>3.5999999046326</ele>
        <time>2016-02-01T08:24:49.000Z</time>
      </trkpt>
      <trkpt lat="46.38696" lon="-0.91926">
        <ele>3.4000000953674</ele>
        <time>2016-02-01T08:25:01.000Z</time>
      </trkpt>
      <trkpt lat="46.38711" lon="-0.91908">
        <ele>3.4000000953674</ele>
        <time>2016-02-01T08:25:14.000Z</time>
      </trkpt>
      <trkpt lat="46.38725" lon="-0.91889">
        <ele>3.2000000476837</ele>
        <time>2016-02-01T08:25:27.000Z</time>
      </trkpt>
      <trkpt lat="46.3874" lon="-0.91873">
        <ele>3.2000000476837</ele>
        <time>2016-02-01T08:25:40.000Z</time>
      </trkpt>
      <trkpt lat="46.38754" lon="-0.91856">
        <ele>2.7999999523163</ele>
        <time>2016-02-01T08:25:54.000Z</time>
      </trkpt>
      <trkpt lat="46.38767" lon="-0.91836">
        <ele>2.7999999523163</ele>
        <time>2016-02-01T08:26:08.000Z</time>
      </trkpt>
      <trkpt lat="46.3878" lon="-0.91815">
        <ele>2.7999999523163</ele>
        <time>2016-02-01T08:26:23.000Z</time>
      </trkpt>
      <trkpt lat="46.3878" lon="-0.91814">
        <ele>2.7999999523163</ele>
        <time>2016-02-01T08:26:24.000Z</time>
      </trkpt>
      <trkpt lat="46.38786" lon="-0.91801">
        <ele>2.7999999523163</ele>
        <time>2016-02-01T08:26:31.000Z</time>
      </trkpt>
      <trkpt lat="46.38797" lon="-0.91779">
        <ele>2.7999999523163</ele>
        <time>2016-02-01T08:26:45.000Z</time>
      </trkpt>
      <trkpt lat="46.38809" lon="-0.91758">
        <ele>2.4000000953674</ele>
        <time>2016-02-01T08:26:58.000Z</time>
      </trkpt>
      <trkpt lat="46.38823" lon="-0.91738">
        <ele>2.4000000953674</ele>
        <time>2016-02-01T08:27:11.000Z</time>
      </trkpt>
      <trkpt lat="46.38836" lon="-0.9172">
        <ele>2.5999999046326</ele>
        <time>2016-02-01T08:27:24.000Z</time>
      </trkpt>
      <trkpt lat="46.38847" lon="-0.91699">
        <ele>2.5999999046326</ele>
        <time>2016-02-01T08:27:37.000Z</time>
      </trkpt>
      <trkpt lat="46.38858" lon="-0.91678">
        <ele>2.5999999046326</ele>
        <time>2016-02-01T08:27:51.000Z</time>
      </trkpt>
      <trkpt lat="46.38869" lon="-0.91657">
        <ele>2.5999999046326</ele>
        <time>2016-02-01T08:28:04.000Z</time>
      </trkpt>
      <trkpt lat="46.38881" lon="-0.91636">
        <ele>2.5999999046326</ele>
        <time>2016-02-01T08:28:17.000Z</time>
      </trkpt>
      <trkpt lat="46.3889" lon="-0.91613">
        <ele>2</ele>
        <time>2016-02-01T08:28:30.000Z</time>
      </trkpt>
      <trkpt lat="46.38898" lon="-0.9159">
        <ele>1.3999999761581</ele>
        <time>2016-02-01T08:28:43.000Z</time>
      </trkpt>
      <trkpt lat="46.38902" lon="-0.91576">
        <ele>1.2000000476837</ele>
        <time>2016-02-01T08:28:51.000Z</time>
      </trkpt>
      <trkpt lat="46.38906" lon="-0.91564">
        <ele>1.2000000476837</ele>
        <time>2016-02-01T08:28:58.000Z</time>
      </trkpt>
      <trkpt lat="46.38915" lon="-0.91546">
        <ele>1.2000000476837</ele>
        <time>2016-02-01T08:29:09.000Z</time>
      </trkpt>
      <trkpt lat="46.38923" lon="-0.91523">
        <ele>1.3999999761581</ele>
        <time>2016-02-01T08:29:22.000Z</time>
      </trkpt>
      <trkpt lat="46.38931" lon="-0.91498">
        <ele>1.7999999523163</ele>
        <time>2016-02-01T08:29:35.000Z</time>
      </trkpt>
      <trkpt lat="46.38939" lon="-0.91473">
        <ele>2</ele>
        <time>2016-02-01T08:29:49.000Z</time>
      </trkpt>
      <trkpt lat="46.38941" lon="-0.91446">
        <ele>2.4000000953674</ele>
        <time>2016-02-01T08:30:02.000Z</time>
      </trkpt>
      <trkpt lat="46.3894" lon="-0.91419">
        <ele>2.7999999523163</ele>
        <time>2016-02-01T08:30:16.000Z</time>
      </trkpt>
      <trkpt lat="46.38941" lon="-0.91407">
        <ele>3</ele>
        <time>2016-02-01T08:30:23.000Z</time>
      </trkpt>
      <trkpt lat="46.38945" lon="-0.914">
        <ele>3.2000000476837</ele>
        <time>2016-02-01T08:30:29.000Z</time>
      </trkpt>
      <trkpt lat="46.38953" lon="-0.91393">
        <ele>3.2000000476837</ele>
        <time>2016-02-01T08:30:36.000Z</time>
      </trkpt>
      <trkpt lat="46.38965" lon="-0.91383">
        <ele>3.2000000476837</ele>
        <time>2016-02-01T08:30:46.000Z</time>
      </trkpt>
      <trkpt lat="46.38981" lon="-0.91371">
        <ele>2.7999999523163</ele>
        <time>2016-02-01T08:30:59.000Z</time>
      </trkpt>
      <trkpt lat="46.38998" lon="-0.91358">
        <ele>2.4000000953674</ele>
        <time>2016-02-01T08:31:13.000Z</time>
      </trkpt>
      <trkpt lat="46.39013" lon="-0.91343">
        <ele>2</ele>
        <time>2016-02-01T08:31:26.000Z</time>
      </trkpt>
      <trkpt lat="46.3903" lon="-0.91331">
        <ele>1.7999999523163</ele>
        <time>2016-02-01T08:31:39.000Z</time>
      </trkpt>
      <trkpt lat="46.39046" lon="-0.9132">
        <ele>1.3999999761581</ele>
        <time>2016-02-01T08:31:51.000Z</time>
      </trkpt>
      <trkpt lat="46.39063" lon="-0.91308">
        <ele>1</ele>
        <time>2016-02-01T08:32:04.000Z</time>
      </trkpt>
      <trkpt lat="46.39081" lon="-0.91295">
        <ele>1.2000000476837</ele>
        <time>2016-02-01T08:32:18.000Z</time>
      </trkpt>
      <trkpt lat="46.39097" lon="-0.91282">
        <ele>1.2000000476837</ele>
        <time>2016-02-01T08:32:32.000Z</time>
      </trkpt>
      <trkpt lat="46.39114" lon="-0.91272">
        <ele>1.3999999761581</ele>
        <time>2016-02-01T08:32:45.000Z</time>
      </trkpt>
      <trkpt lat="46.39132" lon="-0.91261">
        <ele>1.6000000238419</ele>
        <time>2016-02-01T08:32:59.000Z</time>
      </trkpt>
      <trkpt lat="46.39148" lon="-0.91249">
        <ele>1.6000000238419</ele>
        <time>2016-02-01T08:33:11.000Z</time>
      </trkpt>
      <trkpt lat="46.39164" lon="-0.91236">
        <ele>1.7999999523163</ele>
        <time>2016-02-01T08:33:24.000Z</time>
      </trkpt>
      <trkpt lat="46.39181" lon="-0.91224">
        <ele>2</ele>
        <time>2016-02-01T08:33:36.000Z</time>
      </trkpt>
      <trkpt lat="46.39197" lon="-0.9121">
        <ele>2.2000000476837</ele>
        <time>2016-02-01T08:33:49.000Z</time>
      </trkpt>
      <trkpt lat="46.39214" lon="-0.91197">
        <ele>2.4000000953674</ele>
        <time>2016-02-01T08:34:03.000Z</time>
      </trkpt>
      <trkpt lat="46.3923" lon="-0.91185">
        <ele>2.4000000953674</ele>
        <time>2016-02-01T08:34:16.000Z</time>
      </trkpt>
      <trkpt lat="46.39247" lon="-0.91172">
        <ele>2.4000000953674</ele>
        <time>2016-02-01T08:34:30.000Z</time>
      </trkpt>
      <trkpt lat="46.39262" lon="-0.91158">
        <ele>2.4000000953674</ele>
        <time>2016-02-01T08:34:43.000Z</time>
      </trkpt>
      <trkpt lat="46.39278" lon="-0.91146">
        <ele>2.4000000953674</ele>
        <time>2016-02-01T08:34:56.000Z</time>
      </trkpt>
      <trkpt lat="46.39296" lon="-0.91134">
        <ele>2.4000000953674</ele>
        <time>2016-02-01T08:35:08.000Z</time>
      </trkpt>
      <trkpt lat="46.39312" lon="-0.91123">
        <ele>2.4000000953674</ele>
        <time>2016-02-01T08:35:21.000Z</time>
      </trkpt>
      <trkpt lat="46.39329" lon="-0.91111">
        <ele>2.5999999046326</ele>
        <time>2016-02-01T08:35:34.000Z</time>
      </trkpt>
      <trkpt lat="46.39346" lon="-0.911">
        <ele>2.5999999046326</ele>
        <time>2016-02-01T08:35:47.000Z</time>
      </trkpt>
      <trkpt lat="46.39362" lon="-0.91085">
        <ele>2.7999999523163</ele>
        <time>2016-02-01T08:36:01.000Z</time>
      </trkpt>
      <trkpt lat="46.39364" lon="-0.91082">
        <ele>2.7999999523163</ele>
        <time>2016-02-01T08:36:04.000Z</time>
      </trkpt>
      <trkpt lat="46.39368" lon="-0.9108">
        <ele>2.7999999523163</ele>
        <time>2016-02-01T08:36:08.000Z</time>
      </trkpt>
      <trkpt lat="46.39381" lon="-0.91075">
        <ele>2.7999999523163</ele>
        <time>2016-02-01T08:36:27.000Z</time>
      </trkpt>
      <trkpt lat="46.39386" lon="-0.91072">
        <ele>2.7999999523163</ele>
        <time>2016-02-01T08:36:32.000Z</time>
      </trkpt>
      <trkpt lat="46.39403" lon="-0.91058">
        <ele>3</ele>
        <time>2016-02-01T08:36:47.000Z</time>
      </trkpt>
      <trkpt lat="46.39416" lon="-0.91049">
        <ele>3</ele>
        <time>2016-02-01T08:36:58.000Z</time>
      </trkpt>
      <trkpt lat="46.39433" lon="-0.91035">
        <ele>3.4000000953674</ele>
        <time>2016-02-01T08:37:13.000Z</time>
      </trkpt>
      <trkpt lat="46.39435" lon="-0.91033">
        <ele>3.4000000953674</ele>
        <time>2016-02-01T08:37:16.000Z</time>
      </trkpt>
      <trkpt lat="46.3944" lon="-0.9103">
        <ele>3.4000000953674</ele>
        <time>2016-02-01T08:37:21.000Z</time>
      </trkpt>
      <trkpt lat="46.39441" lon="-0.91029">
        <ele>3.4000000953674</ele>
        <time>2016-02-01T08:37:23.000Z</time>
      </trkpt>
      <trkpt lat="46.39443" lon="-0.91024">
        <ele>3.5999999046326</ele>
        <time>2016-02-01T08:38:32.000Z</time>
      </trkpt>
      <trkpt lat="46.39446" lon="-0.9103">
        <ele>3.4000000953674</ele>
        <time>2016-02-01T08:40:58.000Z</time>
      </trkpt>
      <trkpt lat="46.3945" lon="-0.91029">
        <ele>3.4000000953674</ele>
        <time>2016-02-01T08:41:25.000Z</time>
      </trkpt>
      <trkpt lat="46.39469" lon="-0.91026">
        <ele>3.2000000476837</ele>
        <time>2016-02-01T08:41:40.000Z</time>
      </trkpt>
      <trkpt lat="46.39487" lon="-0.91024">
        <ele>3.2000000476837</ele>
        <time>2016-02-01T08:41:54.000Z</time>
      </trkpt>
      <trkpt lat="46.39506" lon="-0.9102">
        <ele>3.4000000953674</ele>
        <time>2016-02-01T08:42:08.000Z</time>
      </trkpt>
      <trkpt lat="46.39524" lon="-0.91021">
        <ele>3.4000000953674</ele>
        <time>2016-02-01T08:42:23.000Z</time>
      </trkpt>
      <trkpt lat="46.39526" lon="-0.91022">
        <ele>3.4000000953674</ele>
        <time>2016-02-01T08:42:24.000Z</time>
      </trkpt>
      <trkpt lat="46.39531" lon="-0.91022">
        <ele>3.4000000953674</ele>
        <time>2016-02-01T08:42:28.000Z</time>
      </trkpt>
      <trkpt lat="46.3955" lon="-0.91017">
        <ele>3.7999999523163</ele>
        <time>2016-02-01T08:42:42.000Z</time>
      </trkpt>
      <trkpt lat="46.39567" lon="-0.91009">
        <ele>4</ele>
        <time>2016-02-01T08:42:55.000Z</time>
      </trkpt>
      <trkpt lat="46.39585" lon="-0.91">
        <ele>3.5999999046326</ele>
        <time>2016-02-01T08:43:08.000Z</time>
      </trkpt>
      <trkpt lat="46.39602" lon="-0.9099">
        <ele>3.2000000476837</ele>
        <time>2016-02-01T08:43:21.000Z</time>
      </trkpt>
      <trkpt lat="46.39619" lon="-0.90979">
        <ele>3</ele>
        <time>2016-02-01T08:43:35.000Z</time>
      </trkpt>
      <trkpt lat="46.39636" lon="-0.90969">
        <ele>2.5999999046326</ele>
        <time>2016-02-01T08:43:48.000Z</time>
      </trkpt>
      <trkpt lat="46.39653" lon="-0.90957">
        <ele>2.4000000953674</ele>
        <time>2016-02-01T08:44:01.000Z</time>
      </trkpt>
      <trkpt lat="46.39666" lon="-0.90949">
        <ele>2.5999999046326</ele>
        <time>2016-02-01T08:44:12.000Z</time>
      </trkpt>
      <trkpt lat="46.39683" lon="-0.90948">
        <ele>2.5999999046326</ele>
        <time>2016-02-01T08:44:34.000Z</time>
      </trkpt>
      <trkpt lat="46.39702" lon="-0.90945">
        <ele>2.5999999046326</ele>
        <time>2016-02-01T08:44:48.000Z</time>
      </trkpt>
      <trkpt lat="46.3972" lon="-0.90942">
        <ele>2.7999999523163</ele>
        <time>2016-02-01T08:45:02.000Z</time>
      </trkpt>
      <trkpt lat="46.39739" lon="-0.90936">
        <ele>2.7999999523163</ele>
        <time>2016-02-01T08:45:15.000Z</time>
      </trkpt>
      <trkpt lat="46.39756" lon="-0.90928">
        <ele>2.7999999523163</ele>
        <time>2016-02-01T08:45:28.000Z</time>
      </trkpt>
      <trkpt lat="46.39774" lon="-0.90918">
        <ele>2.7999999523163</ele>
        <time>2016-02-01T08:45:42.000Z</time>
      </trkpt>
      <trkpt lat="46.39791" lon="-0.90906">
        <ele>3</ele>
        <time>2016-02-01T08:45:55.000Z</time>
      </trkpt>
      <trkpt lat="46.39809" lon="-0.90894">
        <ele>3</ele>
        <time>2016-02-01T08:46:08.000Z</time>
      </trkpt>
      <trkpt lat="46.39825" lon="-0.9088">
        <ele>3</ele>
        <time>2016-02-01T08:46:22.000Z</time>
      </trkpt>
      <trkpt lat="46.39841" lon="-0.90868">
        <ele>3</ele>
        <time>2016-02-01T08:46:35.000Z</time>
      </trkpt>
      <trkpt lat="46.39857" lon="-0.90855">
        <ele>3</ele>
        <time>2016-02-01T08:46:48.000Z</time>
      </trkpt>
      <trkpt lat="46.39875" lon="-0.90844">
        <ele>2.7999999523163</ele>
        <time>2016-02-01T08:47:01.000Z</time>
      </trkpt>
      <trkpt lat="46.39891" lon="-0.90832">
        <ele>2.7999999523163</ele>
        <time>2016-02-01T08:47:14.000Z</time>
      </trkpt>
      <trkpt lat="46.39908" lon="-0.90819">
        <ele>2.7999999523163</ele>
        <time>2016-02-01T08:47:27.000Z</time>
      </trkpt>
      <trkpt lat="46.39924" lon="-0.90807">
        <ele>2.5999999046326</ele>
        <time>2016-02-01T08:47:40.000Z</time>
      </trkpt>
      <trkpt lat="46.3994" lon="-0.90794">
        <ele>2.4000000953674</ele>
        <time>2016-02-01T08:47:54.000Z</time>
      </trkpt>
      <trkpt lat="46.39956" lon="-0.90778">
        <ele>2.4000000953674</ele>
        <time>2016-02-01T08:48:07.000Z</time>
      </trkpt>
      <trkpt lat="46.39965" lon="-0.90755">
        <ele>2.2000000476837</ele>
        <time>2016-02-01T08:48:21.000Z</time>
      </trkpt>
      <trkpt lat="46.39973" lon="-0.90732">
        <ele>2.2000000476837</ele>
        <time>2016-02-01T08:48:34.000Z</time>
      </trkpt>
      <trkpt lat="46.3998" lon="-0.90708">
        <ele>2</ele>
        <time>2016-02-01T08:48:47.000Z</time>
      </trkpt>
      <trkpt lat="46.39982" lon="-0.90699">
        <ele>2</ele>
        <time>2016-02-01T08:48:52.000Z</time>
      </trkpt>
      <trkpt lat="46.39984" lon="-0.90696">
        <ele>2</ele>
        <time>2016-02-01T08:48:54.000Z</time>
      </trkpt>
      <trkpt lat="46.39992" lon="-0.90673">
        <ele>1.7999999523163</ele>
        <time>2016-02-01T08:49:07.000Z</time>
      </trkpt>
      <trkpt lat="46.40004" lon="-0.90652">
        <ele>1.7999999523163</ele>
        <time>2016-02-01T08:49:20.000Z</time>
      </trkpt>
      <trkpt lat="46.40014" lon="-0.90629">
        <ele>1.7999999523163</ele>
        <time>2016-02-01T08:49:34.000Z</time>
      </trkpt>
      <trkpt lat="46.40024" lon="-0.90607">
        <ele>1.7999999523163</ele>
        <time>2016-02-01T08:49:49.000Z</time>
      </trkpt>
      <trkpt lat="46.40032" lon="-0.90582">
        <ele>2</ele>
        <time>2016-02-01T08:50:04.000Z</time>
      </trkpt>
      <trkpt lat="46.40039" lon="-0.90557">
        <ele>2.4000000953674</ele>
        <time>2016-02-01T08:50:18.000Z</time>
      </trkpt>
      <trkpt lat="46.40046" lon="-0.90533">
        <ele>2.5999999046326</ele>
        <time>2016-02-01T08:50:32.000Z</time>
      </trkpt>
      <trkpt lat="46.4005" lon="-0.90509">
        <ele>2.7999999523163</ele>
        <time>2016-02-01T08:50:45.000Z</time>
      </trkpt>
      <trkpt lat="46.40047" lon="-0.90504">
        <ele>2.7999999523163</ele>
        <time>2016-02-01T08:50:48.000Z</time>
      </trkpt>
      <trkpt lat="46.40045" lon="-0.90498">
        <ele>3</ele>
        <time>2016-02-01T08:50:52.000Z</time>
      </trkpt>
      <trkpt lat="46.40029" lon="-0.90481">
        <ele>4</ele>
        <time>2016-02-01T08:51:07.000Z</time>
      </trkpt>
      <trkpt lat="46.40014" lon="-0.90467">
        <ele>5</ele>
        <time>2016-02-01T08:51:21.000Z</time>
      </trkpt>
      <trkpt lat="46.40009" lon="-0.90461">
        <ele>5.4000000953674</ele>
        <time>2016-02-01T08:51:26.000Z</time>
      </trkpt>
      <trkpt lat="46.40004" lon="-0.90454">
        <ele>5.5999999046326</ele>
        <time>2016-02-01T08:51:32.000Z</time>
      </trkpt>
      <trkpt lat="46.39993" lon="-0.90433">
        <ele>7.4000000953674</ele>
        <time>2016-02-01T08:51:48.000Z</time>
      </trkpt>
      <trkpt lat="46.39975" lon="-0.90426">
        <ele>8.8000001907349</ele>
        <time>2016-02-01T08:52:05.000Z</time>
      </trkpt>
      <trkpt lat="46.39957" lon="-0.90424">
        <ele>10.39999961853</ele>
        <time>2016-02-01T08:52:20.000Z</time>
      </trkpt>
      <trkpt lat="46.39939" lon="-0.90422">
        <ele>12</ele>
        <time>2016-02-01T08:52:35.000Z</time>
      </trkpt>
      <trkpt lat="46.3992" lon="-0.90418">
        <ele>13.39999961853</ele>
        <time>2016-02-01T08:52:49.000Z</time>
      </trkpt>
      <trkpt lat="46.39902" lon="-0.90417">
        <ele>14.800000190735</ele>
        <time>2016-02-01T08:53:02.000Z</time>
      </trkpt>
      <trkpt lat="46.39883" lon="-0.90413">
        <ele>16</ele>
        <time>2016-02-01T08:53:16.000Z</time>
      </trkpt>
      <trkpt lat="46.39871" lon="-0.90415">
        <ele>16.39999961853</ele>
        <time>2016-02-01T08:53:26.000Z</time>
      </trkpt>
      <trkpt lat="46.39863" lon="-0.90421">
        <ele>16.39999961853</ele>
        <time>2016-02-01T08:53:33.000Z</time>
      </trkpt>
      <trkpt lat="46.39848" lon="-0.90437">
        <ele>16.60000038147</ele>
        <time>2016-02-01T08:53:47.000Z</time>
      </trkpt>
      <trkpt lat="46.39835" lon="-0.90454">
        <ele>16.799999237061</ele>
        <time>2016-02-01T08:54:01.000Z</time>
      </trkpt>
      <trkpt lat="46.39821" lon="-0.90471">
        <ele>16.799999237061</ele>
        <time>2016-02-01T08:54:16.000Z</time>
      </trkpt>
      <trkpt lat="46.39809" lon="-0.90492">
        <ele>16.60000038147</ele>
        <time>2016-02-01T08:54:32.000Z</time>
      </trkpt>
      <trkpt lat="46.39811" lon="-0.90518">
        <ele>15.60000038147</ele>
        <time>2016-02-01T08:54:46.000Z</time>
      </trkpt>
      <trkpt lat="46.39818" lon="-0.90543">
        <ele>14.39999961853</ele>
        <time>2016-02-01T08:55:01.000Z</time>
      </trkpt>
      <trkpt lat="46.39818" lon="-0.90549">
        <ele>14.199999809265</ele>
        <time>2016-02-01T08:55:06.000Z</time>
      </trkpt>
      <trkpt lat="46.39813" lon="-0.90555">
        <ele>14.199999809265</ele>
        <time>2016-02-01T08:55:12.000Z</time>
      </trkpt>
      <trkpt lat="46.398" lon="-0.90573">
        <ele>14.199999809265</ele>
        <time>2016-02-01T08:55:27.000Z</time>
      </trkpt>
      <trkpt lat="46.39785" lon="-0.90589">
        <ele>14.199999809265</ele>
        <time>2016-02-01T08:55:42.000Z</time>
      </trkpt>
      <trkpt lat="46.3977" lon="-0.90603">
        <ele>14.60000038147</ele>
        <time>2016-02-01T08:55:57.000Z</time>
      </trkpt>
      <trkpt lat="46.39753" lon="-0.90615">
        <ele>14.800000190735</ele>
        <time>2016-02-01T08:56:12.000Z</time>
      </trkpt>
      <trkpt lat="46.39746" lon="-0.90618">
        <ele>15.199999809265</ele>
        <time>2016-02-01T08:56:20.000Z</time>
      </trkpt>
      <trkpt lat="46.39733" lon="-0.90602">
        <ele>16.200000762939</ele>
        <time>2016-02-01T08:57:22.000Z</time>
      </trkpt>
      <trkpt lat="46.39715" lon="-0.90596">
        <ele>16.799999237061</ele>
        <time>2016-02-01T08:57:39.000Z</time>
      </trkpt>
      <trkpt lat="46.39705" lon="-0.90573">
        <ele>17.799999237061</ele>
        <time>2016-02-01T08:57:55.000Z</time>
      </trkpt>
      <trkpt lat="46.39696" lon="-0.9055">
        <ele>18.60000038147</ele>
        <time>2016-02-01T08:58:09.000Z</time>
      </trkpt>
      <trkpt lat="46.39688" lon="-0.90525">
        <ele>19</ele>
        <time>2016-02-01T08:58:25.000Z</time>
      </trkpt>
      <trkpt lat="46.39678" lon="-0.90503">
        <ele>19.200000762939</ele>
        <time>2016-02-01T08:58:42.000Z</time>
      </trkpt>
      <trkpt lat="46.39661" lon="-0.90494">
        <ele>19.60000038147</ele>
        <time>2016-02-01T08:58:56.000Z</time>
      </trkpt>
      <trkpt lat="46.39643" lon="-0.90498">
        <ele>19.799999237061</ele>
        <time>2016-02-01T08:59:13.000Z</time>
      </trkpt>
      <trkpt lat="46.39637" lon="-0.90502">
        <ele>20</ele>
        <time>2016-02-01T08:59:21.000Z</time>
      </trkpt>
      <trkpt lat="46.39619" lon="-0.90507">
        <ele>20.200000762939</ele>
        <time>2016-02-01T08:59:59.000Z</time>
      </trkpt>
      <trkpt lat="46.39615" lon="-0.90509">
        <ele>20.39999961853</ele>
        <time>2016-02-01T09:00:04.000Z</time>
      </trkpt>
      <trkpt lat="46.39607" lon="-0.90486">
        <ele>20.39999961853</ele>
        <time>2016-02-01T09:00:20.000Z</time>
      </trkpt>
      <trkpt lat="46.39599" lon="-0.90462">
        <ele>20.200000762939</ele>
        <time>2016-02-01T09:00:34.000Z</time>
      </trkpt>
      <trkpt lat="46.3959" lon="-0.90437">
        <ele>19.60000038147</ele>
        <time>2016-02-01T09:00:47.000Z</time>
      </trkpt>
      <trkpt lat="46.39582" lon="-0.90412">
        <ele>19.60000038147</ele>
        <time>2016-02-01T09:01:02.000Z</time>
      </trkpt>
      <trkpt lat="46.39576" lon="-0.90397">
        <ele>19.60000038147</ele>
        <time>2016-02-01T09:01:13.000Z</time>
      </trkpt>
      <trkpt lat="46.39575" lon="-0.90394">
        <ele>19.60000038147</ele>
        <time>2016-02-01T09:01:18.000Z</time>
      </trkpt>
      <trkpt lat="46.39566" lon="-0.90369">
        <ele>19.60000038147</ele>
        <time>2016-02-01T09:01:34.000Z</time>
      </trkpt>
      <trkpt lat="46.39557" lon="-0.90346">
        <ele>18.799999237061</ele>
        <time>2016-02-01T09:01:49.000Z</time>
      </trkpt>
      <trkpt lat="46.39551" lon="-0.90328">
        <ele>18.200000762939</ele>
        <time>2016-02-01T09:02:37.000Z</time>
      </trkpt>
      <trkpt lat="46.39551" lon="-0.90329">
        <ele>18.200000762939</ele>
        <time>2016-02-01T09:03:17.000Z</time>
      </trkpt>
      <trkpt lat="46.39551" lon="-0.90328">
        <ele>18.200000762939</ele>
        <time>2016-02-01T09:03:50.000Z</time>
      </trkpt>
      <trkpt lat="46.3955" lon="-0.90317">
        <ele>18</ele>
        <time>2016-02-01T09:05:17.000Z</time>
      </trkpt>
      <trkpt lat="46.39548" lon="-0.90324">
        <ele>18</ele>
        <time>2016-02-01T09:07:03.000Z</time>
      </trkpt>
      <trkpt lat="46.39548" lon="-0.90319">
        <ele>18</ele>
        <time>2016-02-01T09:07:35.000Z</time>
      </trkpt>
      <trkpt lat="46.39557" lon="-0.90297">
        <ele>17.799999237061</ele>
        <time>2016-02-01T09:08:05.000Z</time>
      </trkpt>
      <trkpt lat="46.39572" lon="-0.90281">
        <ele>17.60000038147</ele>
        <time>2016-02-01T09:08:25.000Z</time>
      </trkpt>
      <trkpt lat="46.39585" lon="-0.90262">
        <ele>17.200000762939</ele>
        <time>2016-02-01T09:08:41.000Z</time>
      </trkpt>
      <trkpt lat="46.39601" lon="-0.90249">
        <ele>16.799999237061</ele>
        <time>2016-02-01T09:08:56.000Z</time>
      </trkpt>
      <trkpt lat="46.39617" lon="-0.90233">
        <ele>16.39999961853</ele>
        <time>2016-02-01T09:09:10.000Z</time>
      </trkpt>
      <trkpt lat="46.39632" lon="-0.90218">
        <ele>16.39999961853</ele>
        <time>2016-02-01T09:09:25.000Z</time>
      </trkpt>
      <trkpt lat="46.39648" lon="-0.90205">
        <ele>16.39999961853</ele>
        <time>2016-02-01T09:09:39.000Z</time>
      </trkpt>
      <trkpt lat="46.39664" lon="-0.9019">
        <ele>16.200000762939</ele>
        <time>2016-02-01T09:09:53.000Z</time>
      </trkpt>
      <trkpt lat="46.39678" lon="-0.90173">
        <ele>16.200000762939</ele>
        <time>2016-02-01T09:10:06.000Z</time>
      </trkpt>
      <trkpt lat="46.39694" lon="-0.90158">
        <ele>16</ele>
        <time>2016-02-01T09:10:20.000Z</time>
      </trkpt>
      <trkpt lat="46.39698" lon="-0.90155">
        <ele>15.800000190735</ele>
        <time>2016-02-01T09:10:24.000Z</time>
      </trkpt>
      <trkpt lat="46.39707" lon="-0.90146">
        <ele>15.800000190735</ele>
        <time>2016-02-01T09:10:32.000Z</time>
      </trkpt>
      <trkpt lat="46.39722" lon="-0.90131">
        <ele>15.199999809265</ele>
        <time>2016-02-01T09:10:45.000Z</time>
      </trkpt>
      <trkpt lat="46.39737" lon="-0.90114">
        <ele>14.39999961853</ele>
        <time>2016-02-01T09:10:59.000Z</time>
      </trkpt>
      <trkpt lat="46.39752" lon="-0.90096">
        <ele>14</ele>
        <time>2016-02-01T09:11:13.000Z</time>
      </trkpt>
      <trkpt lat="46.39768" lon="-0.90081">
        <ele>13.60000038147</ele>
        <time>2016-02-01T09:11:27.000Z</time>
      </trkpt>
      <trkpt lat="46.39783" lon="-0.90065">
        <ele>13.199999809265</ele>
        <time>2016-02-01T09:11:40.000Z</time>
      </trkpt>
      <trkpt lat="46.39798" lon="-0.90047">
        <ele>13</ele>
        <time>2016-02-01T09:11:53.000Z</time>
      </trkpt>
      <trkpt lat="46.39812" lon="-0.9003">
        <ele>13</ele>
        <time>2016-02-01T09:12:07.000Z</time>
      </trkpt>
      <trkpt lat="46.39826" lon="-0.90013">
        <ele>12.800000190735</ele>
        <time>2016-02-01T09:12:20.000Z</time>
      </trkpt>
      <trkpt lat="46.39841" lon="-0.89997">
        <ele>12.39999961853</ele>
        <time>2016-02-01T09:12:33.000Z</time>
      </trkpt>
      <trkpt lat="46.39855" lon="-0.89979">
        <ele>12</ele>
        <time>2016-02-01T09:12:46.000Z</time>
      </trkpt>
      <trkpt lat="46.39868" lon="-0.8996">
        <ele>11.60000038147</ele>
        <time>2016-02-01T09:12:59.000Z</time>
      </trkpt>
      <trkpt lat="46.39881" lon="-0.89942">
        <ele>11</ele>
        <time>2016-02-01T09:13:11.000Z</time>
      </trkpt>
      <trkpt lat="46.39893" lon="-0.8992">
        <ele>10.39999961853</ele>
        <time>2016-02-01T09:13:25.000Z</time>
      </trkpt>
      <trkpt lat="46.39905" lon="-0.899">
        <ele>10</ele>
        <time>2016-02-01T09:13:38.000Z</time>
      </trkpt>
      <trkpt lat="46.39918" lon="-0.8988">
        <ele>9.6000003814697</ele>
        <time>2016-02-01T09:13:51.000Z</time>
      </trkpt>
      <trkpt lat="46.39932" lon="-0.89863">
        <ele>9.1999998092651</ele>
        <time>2016-02-01T09:14:05.000Z</time>
      </trkpt>
      <trkpt lat="46.39947" lon="-0.89847">
        <ele>8.8000001907349</ele>
        <time>2016-02-01T09:14:18.000Z</time>
      </trkpt>
      <trkpt lat="46.39962" lon="-0.89831">
        <ele>8.3999996185303</ele>
        <time>2016-02-01T09:14:32.000Z</time>
      </trkpt>
      <trkpt lat="46.39977" lon="-0.89815">
        <ele>8.1999998092651</ele>
        <time>2016-02-01T09:14:45.000Z</time>
      </trkpt>
      <trkpt lat="46.39992" lon="-0.898">
        <ele>8</ele>
        <time>2016-02-01T09:14:58.000Z</time>
      </trkpt>
      <trkpt lat="46.40006" lon="-0.89783">
        <ele>8</ele>
        <time>2016-02-01T09:15:11.000Z</time>
      </trkpt>
      <trkpt lat="46.40019" lon="-0.89765">
        <ele>8</ele>
        <time>2016-02-01T09:15:25.000Z</time>
      </trkpt>
      <trkpt lat="46.40034" lon="-0.89747">
        <ele>8</ele>
        <time>2016-02-01T09:15:39.000Z</time>
      </trkpt>
      <trkpt lat="46.4005" lon="-0.89732">
        <ele>8</ele>
        <time>2016-02-01T09:15:53.000Z</time>
      </trkpt>
      <trkpt lat="46.40068" lon="-0.89719">
        <ele>8</ele>
        <time>2016-02-01T09:16:07.000Z</time>
      </trkpt>
      <trkpt lat="46.40084" lon="-0.89707">
        <ele>7.8000001907349</ele>
        <time>2016-02-01T09:16:20.000Z</time>
      </trkpt>
      <trkpt lat="46.40101" lon="-0.89697">
        <ele>7.4000000953674</ele>
        <time>2016-02-01T09:16:33.000Z</time>
      </trkpt>
      <trkpt lat="46.40118" lon="-0.89686">
        <ele>7.1999998092651</ele>
        <time>2016-02-01T09:16:47.000Z</time>
      </trkpt>
      <trkpt lat="46.40136" lon="-0.89677">
        <ele>6.8000001907349</ele>
        <time>2016-02-01T09:17:01.000Z</time>
      </trkpt>
      <trkpt lat="46.40154" lon="-0.89669">
        <ele>6.5999999046326</ele>
        <time>2016-02-01T09:17:15.000Z</time>
      </trkpt>
      <trkpt lat="46.40168" lon="-0.89658">
        <ele>6.5999999046326</ele>
        <time>2016-02-01T09:17:25.000Z</time>
      </trkpt>
      <trkpt lat="46.40169" lon="-0.89655">
        <ele>6.5999999046326</ele>
        <time>2016-02-01T09:17:27.000Z</time>
      </trkpt>
      <trkpt lat="46.40186" lon="-0.89646">
        <ele>6.4000000953674</ele>
        <time>2016-02-01T09:17:40.000Z</time>
      </trkpt>
      <trkpt lat="46.40204" lon="-0.89637">
        <ele>6.4000000953674</ele>
        <time>2016-02-01T09:17:54.000Z</time>
      </trkpt>
      <trkpt lat="46.40221" lon="-0.89627">
        <ele>6.1999998092651</ele>
        <time>2016-02-01T09:18:07.000Z</time>
      </trkpt>
      <trkpt lat="46.40239" lon="-0.89622">
        <ele>6</ele>
        <time>2016-02-01T09:18:20.000Z</time>
      </trkpt>
      <trkpt lat="46.40245" lon="-0.89619">
        <ele>6</ele>
        <time>2016-02-01T09:18:25.000Z</time>
      </trkpt>
      <trkpt lat="46.40263" lon="-0.89615">
        <ele>6</ele>
        <time>2016-02-01T09:18:38.000Z</time>
      </trkpt>
      <trkpt lat="46.40282" lon="-0.89609">
        <ele>6</ele>
        <time>2016-02-01T09:18:51.000Z</time>
      </trkpt>
      <trkpt lat="46.40299" lon="-0.89599">
        <ele>6</ele>
        <time>2016-02-01T09:19:04.000Z</time>
      </trkpt>
      <trkpt lat="46.40316" lon="-0.89589">
        <ele>6</ele>
        <time>2016-02-01T09:19:17.000Z</time>
      </trkpt>
      <trkpt lat="46.40334" lon="-0.89579">
        <ele>6</ele>
        <time>2016-02-01T09:19:30.000Z</time>
      </trkpt>
      <trkpt lat="46.40351" lon="-0.89569">
        <ele>6</ele>
        <time>2016-02-01T09:19:42.000Z</time>
      </trkpt>
      <trkpt lat="46.40366" lon="-0.8956">
        <ele>6</ele>
        <time>2016-02-01T09:19:55.000Z</time>
      </trkpt>
      <trkpt lat="46.4037" lon="-0.89557">
        <ele>6</ele>
        <time>2016-02-01T09:19:59.000Z</time>
      </trkpt>
      <trkpt lat="46.40387" lon="-0.89545">
        <ele>6.1999998092651</ele>
        <time>2016-02-01T09:20:13.000Z</time>
      </trkpt>
      <trkpt lat="46.40389" lon="-0.89544">
        <ele>6.1999998092651</ele>
        <time>2016-02-01T09:20:15.000Z</time>
      </trkpt>
      <trkpt lat="46.40404" lon="-0.89527">
        <ele>6.4000000953674</ele>
        <time>2016-02-01T09:20:29.000Z</time>
      </trkpt>
      <trkpt lat="46.40413" lon="-0.89504">
        <ele>6.5999999046326</ele>
        <time>2016-02-01T09:20:43.000Z</time>
      </trkpt>
      <trkpt lat="46.4042" lon="-0.8948">
        <ele>7</ele>
        <time>2016-02-01T09:20:57.000Z</time>
      </trkpt>
      <trkpt lat="46.40432" lon="-0.89458">
        <ele>7.1999998092651</ele>
        <time>2016-02-01T09:21:10.000Z</time>
      </trkpt>
      <trkpt lat="46.40445" lon="-0.89438">
        <ele>7.4000000953674</ele>
        <time>2016-02-01T09:21:22.000Z</time>
      </trkpt>
      <trkpt lat="46.40459" lon="-0.89423">
        <ele>7.5999999046326</ele>
        <time>2016-02-01T09:21:34.000Z</time>
      </trkpt>
      <trkpt lat="46.40475" lon="-0.89411">
        <ele>7.8000001907349</ele>
        <time>2016-02-01T09:21:47.000Z</time>
      </trkpt>
      <trkpt lat="46.40493" lon="-0.89401">
        <ele>7.5999999046326</ele>
        <time>2016-02-01T09:22:00.000Z</time>
      </trkpt>
      <trkpt lat="46.4051" lon="-0.89391">
        <ele>7.4000000953674</ele>
        <time>2016-02-01T09:22:13.000Z</time>
      </trkpt>
      <trkpt lat="46.40522" lon="-0.89371">
        <ele>7</ele>
        <time>2016-02-01T09:22:26.000Z</time>
      </trkpt>
      <trkpt lat="46.40533" lon="-0.8935">
        <ele>6.8000001907349</ele>
        <time>2016-02-01T09:22:43.000Z</time>
      </trkpt>
      <trkpt lat="46.40549" lon="-0.89334">
        <ele>6.4000000953674</ele>
        <time>2016-02-01T09:22:56.000Z</time>
      </trkpt>
      <trkpt lat="46.40563" lon="-0.89317">
        <ele>6</ele>
        <time>2016-02-01T09:23:09.000Z</time>
      </trkpt>
      <trkpt lat="46.40563" lon="-0.89316">
        <ele>6</ele>
        <time>2016-02-01T09:23:10.000Z</time>
      </trkpt>
      <trkpt lat="46.40571" lon="-0.89322">
        <ele>6</ele>
        <time>2016-02-01T09:23:19.000Z</time>
      </trkpt>
      <trkpt lat="46.40583" lon="-0.89315">
        <ele>5.8000001907349</ele>
        <time>2016-02-01T09:24:38.000Z</time>
      </trkpt>
      <trkpt lat="46.40601" lon="-0.89308">
        <ele>5.5999999046326</ele>
        <time>2016-02-01T09:24:55.000Z</time>
      </trkpt>
      <trkpt lat="46.40619" lon="-0.89313">
        <ele>5.4000000953674</ele>
        <time>2016-02-01T09:25:08.000Z</time>
      </trkpt>
      <trkpt lat="46.40628" lon="-0.89316">
        <ele>5.1999998092651</ele>
        <time>2016-02-01T09:25:15.000Z</time>
      </trkpt>
      <trkpt lat="46.40643" lon="-0.89324">
        <ele>5</ele>
        <time>2016-02-01T09:25:56.000Z</time>
      </trkpt>
      <trkpt lat="46.40648" lon="-0.89299">
        <ele>5</ele>
        <time>2016-02-01T09:26:25.000Z</time>
      </trkpt>
      <trkpt lat="46.4064" lon="-0.8928">
        <ele>4.8000001907349</ele>
        <time>2016-02-01T09:26:57.000Z</time>
      </trkpt>
      <trkpt lat="46.40622" lon="-0.89275">
        <ele>5</ele>
        <time>2016-02-01T09:27:23.000Z</time>
      </trkpt>
      <trkpt lat="46.40604" lon="-0.89278">
        <ele>5.1999998092651</ele>
        <time>2016-02-01T09:28:02.000Z</time>
      </trkpt>
      <trkpt lat="46.40603" lon="-0.89278">
        <ele>5.1999998092651</ele>
        <time>2016-02-01T09:28:03.000Z</time>
      </trkpt>
      <trkpt lat="46.40587" lon="-0.89289">
        <ele>5.5999999046326</ele>
        <time>2016-02-01T09:28:18.000Z</time>
      </trkpt>
      <trkpt lat="46.40573" lon="-0.89305">
        <ele>5.8000001907349</ele>
        <time>2016-02-01T09:28:31.000Z</time>
      </trkpt>
      <trkpt lat="46.40565" lon="-0.89317">
        <ele>6</ele>
        <time>2016-02-01T09:28:40.000Z</time>
      </trkpt>
      <trkpt lat="46.40571" lon="-0.89321">
        <ele>6</ele>
        <time>2016-02-01T09:28:46.000Z</time>
      </trkpt>
      <trkpt lat="46.40589" lon="-0.89313">
        <ele>5.8000001907349</ele>
        <time>2016-02-01T09:29:00.000Z</time>
      </trkpt>
      <trkpt lat="46.40607" lon="-0.8931">
        <ele>5.4000000953674</ele>
        <time>2016-02-01T09:29:14.000Z</time>
      </trkpt>
      <trkpt lat="46.40622" lon="-0.89313">
        <ele>5.4000000953674</ele>
        <time>2016-02-01T09:29:27.000Z</time>
      </trkpt>
      <trkpt lat="46.40628" lon="-0.89319">
        <ele>5.1999998092651</ele>
        <time>2016-02-01T09:29:32.000Z</time>
      </trkpt>
      <trkpt lat="46.40639" lon="-0.89324">
        <ele>5.1999998092651</ele>
        <time>2016-02-01T09:29:40.000Z</time>
      </trkpt>
      <trkpt lat="46.4064" lon="-0.89331">
        <ele>5</ele>
        <time>2016-02-01T09:29:44.000Z</time>
      </trkpt>
      <trkpt lat="46.40641" lon="-0.89334">
        <ele>5</ele>
        <time>2016-02-01T09:29:46.000Z</time>
      </trkpt>
      <trkpt lat="46.40641" lon="-0.8936">
        <ele>5</ele>
        <time>2016-02-01T09:29:59.000Z</time>
      </trkpt>
      <trkpt lat="46.40639" lon="-0.89377">
        <ele>5.1999998092651</ele>
        <time>2016-02-01T09:30:08.000Z</time>
      </trkpt>
      <trkpt lat="46.40633" lon="-0.89402">
        <ele>5</ele>
        <time>2016-02-01T09:30:23.000Z</time>
      </trkpt>
      <trkpt lat="46.40632" lon="-0.8943">
        <ele>4.8000001907349</ele>
        <time>2016-02-01T09:30:36.000Z</time>
      </trkpt>
      <trkpt lat="46.40628" lon="-0.89456">
        <ele>4.4000000953674</ele>
        <time>2016-02-01T09:30:49.000Z</time>
      </trkpt>
      <trkpt lat="46.40626" lon="-0.89462">
        <ele>4.4000000953674</ele>
        <time>2016-02-01T09:30:52.000Z</time>
      </trkpt>
      <trkpt lat="46.40625" lon="-0.89469">
        <ele>4.4000000953674</ele>
        <time>2016-02-01T09:30:55.000Z</time>
      </trkpt>
      <trkpt lat="46.40626" lon="-0.89484">
        <ele>4.1999998092651</ele>
        <time>2016-02-01T09:31:02.000Z</time>
      </trkpt>
      <trkpt lat="46.40626" lon="-0.89511">
        <ele>4</ele>
        <time>2016-02-01T09:31:16.000Z</time>
      </trkpt>
      <trkpt lat="46.40626" lon="-0.89513">
        <ele>4</ele>
        <time>2016-02-01T09:31:17.000Z</time>
      </trkpt>
      <trkpt lat="46.40626" lon="-0.89525">
        <ele>4</ele>
        <time>2016-02-01T09:31:27.000Z</time>
      </trkpt>
      <trkpt lat="46.40628" lon="-0.8955">
        <ele>3.5999999046326</ele>
        <time>2016-02-01T09:31:42.000Z</time>
      </trkpt>
      <trkpt lat="46.40627" lon="-0.89558">
        <ele>3.5999999046326</ele>
        <time>2016-02-01T09:31:46.000Z</time>
      </trkpt>
      <trkpt lat="46.40626" lon="-0.89575">
        <ele>3.4000000953674</ele>
        <time>2016-02-01T09:31:55.000Z</time>
      </trkpt>
      <trkpt lat="46.40621" lon="-0.89601">
        <ele>3.2000000476837</ele>
        <time>2016-02-01T09:32:07.000Z</time>
      </trkpt>
      <trkpt lat="46.40615" lon="-0.89627">
        <ele>3</ele>
        <time>2016-02-01T09:32:19.000Z</time>
      </trkpt>
      <trkpt lat="46.40611" lon="-0.89651">
        <ele>2.7999999523163</ele>
        <time>2016-02-01T09:32:31.000Z</time>
      </trkpt>
      <trkpt lat="46.40608" lon="-0.89665">
        <ele>2.5999999046326</ele>
        <time>2016-02-01T09:32:38.000Z</time>
      </trkpt>
      <trkpt lat="46.40606" lon="-0.89691">
        <ele>2.5999999046326</ele>
        <time>2016-02-01T09:32:50.000Z</time>
      </trkpt>
      <trkpt lat="46.40608" lon="-0.89718">
        <ele>2.4000000953674</ele>
        <time>2016-02-01T09:33:03.000Z</time>
      </trkpt>
      <trkpt lat="46.4061" lon="-0.89744">
        <ele>2.2000000476837</ele>
        <time>2016-02-01T09:33:15.000Z</time>
      </trkpt>
      <trkpt lat="46.40615" lon="-0.8977">
        <ele>2</ele>
        <time>2016-02-01T09:33:28.000Z</time>
      </trkpt>
      <trkpt lat="46.4062" lon="-0.89797">
        <ele>2</ele>
        <time>2016-02-01T09:33:41.000Z</time>
      </trkpt>
      <trkpt lat="46.40625" lon="-0.89822">
        <ele>2</ele>
        <time>2016-02-01T09:33:53.000Z</time>
      </trkpt>
      <trkpt lat="46.40625" lon="-0.89829">
        <ele>2</ele>
        <time>2016-02-01T09:33:56.000Z</time>
      </trkpt>
      <trkpt lat="46.40628" lon="-0.89855">
        <ele>2</ele>
        <time>2016-02-01T09:34:08.000Z</time>
      </trkpt>
      <trkpt lat="46.40632" lon="-0.89881">
        <ele>2</ele>
        <time>2016-02-01T09:34:21.000Z</time>
      </trkpt>
      <trkpt lat="46.4063" lon="-0.89908">
        <ele>1.7999999523163</ele>
        <time>2016-02-01T09:34:34.000Z</time>
      </trkpt>
      <trkpt lat="46.40627" lon="-0.89931">
        <ele>1.6000000238419</ele>
        <time>2016-02-01T09:34:45.000Z</time>
      </trkpt>
      <trkpt lat="46.40621" lon="-0.89956">
        <ele>1.2000000476837</ele>
        <time>2016-02-01T09:34:58.000Z</time>
      </trkpt>
      <trkpt lat="46.40616" lon="-0.89981">
        <ele>1</ele>
        <time>2016-02-01T09:35:10.000Z</time>
      </trkpt>
      <trkpt lat="46.40614" lon="-0.89989">
        <ele>1.2000000476837</ele>
        <time>2016-02-01T09:35:14.000Z</time>
      </trkpt>
      <trkpt lat="46.40611" lon="-0.89998">
        <ele>1.2000000476837</ele>
        <time>2016-02-01T09:35:19.000Z</time>
      </trkpt>
      <trkpt lat="46.40603" lon="-0.90021">
        <ele>1.6000000238419</ele>
        <time>2016-02-01T09:35:32.000Z</time>
      </trkpt>
      <trkpt lat="46.40592" lon="-0.90044">
        <ele>1.6000000238419</ele>
        <time>2016-02-01T09:35:45.000Z</time>
      </trkpt>
      <trkpt lat="46.40581" lon="-0.90067">
        <ele>2</ele>
        <time>2016-02-01T09:35:58.000Z</time>
      </trkpt>
      <trkpt lat="46.40568" lon="-0.90087">
        <ele>2.4000000953674</ele>
        <time>2016-02-01T09:36:12.000Z</time>
      </trkpt>
      <trkpt lat="46.40556" lon="-0.90108">
        <ele>2.7999999523163</ele>
        <time>2016-02-01T09:36:25.000Z</time>
      </trkpt>
      <trkpt lat="46.40544" lon="-0.9013">
        <ele>3.2000000476837</ele>
        <time>2016-02-01T09:36:37.000Z</time>
      </trkpt>
      <trkpt lat="46.40534" lon="-0.90146">
        <ele>3.4000000953674</ele>
        <time>2016-02-01T09:36:48.000Z</time>
      </trkpt>
      <trkpt lat="46.40532" lon="-0.90148">
        <ele>3.4000000953674</ele>
        <time>2016-02-01T09:36:50.000Z</time>
      </trkpt>
      <trkpt lat="46.4052" lon="-0.90167">
        <ele>3.5999999046326</ele>
        <time>2016-02-01T09:37:03.000Z</time>
      </trkpt>
      <trkpt lat="46.40519" lon="-0.90169">
        <ele>3.5999999046326</ele>
        <time>2016-02-01T09:37:04.000Z</time>
      </trkpt>
      <trkpt lat="46.40506" lon="-0.90187">
        <ele>3.7999999523163</ele>
        <time>2016-02-01T09:37:16.000Z</time>
      </trkpt>
      <trkpt lat="46.40495" lon="-0.9021">
        <ele>3.7999999523163</ele>
        <time>2016-02-01T09:37:28.000Z</time>
      </trkpt>
      <trkpt lat="46.40484" lon="-0.90232">
        <ele>4</ele>
        <time>2016-02-01T09:37:40.000Z</time>
      </trkpt>
      <trkpt lat="46.40471" lon="-0.90251">
        <ele>4</ele>
        <time>2016-02-01T09:37:52.000Z</time>
      </trkpt>
      <trkpt lat="46.40459" lon="-0.90274">
        <ele>4</ele>
        <time>2016-02-01T09:38:05.000Z</time>
      </trkpt>
      <trkpt lat="46.40447" lon="-0.90294">
        <ele>4</ele>
        <time>2016-02-01T09:38:17.000Z</time>
      </trkpt>
      <trkpt lat="46.40433" lon="-0.90313">
        <ele>4</ele>
        <time>2016-02-01T09:38:30.000Z</time>
      </trkpt>
      <trkpt lat="46.4042" lon="-0.90332">
        <ele>3.5999999046326</ele>
        <time>2016-02-01T09:38:42.000Z</time>
      </trkpt>
      <trkpt lat="46.40408" lon="-0.90353">
        <ele>3.4000000953674</ele>
        <time>2016-02-01T09:38:55.000Z</time>
      </trkpt>
      <trkpt lat="46.40396" lon="-0.9037">
        <ele>3.2000000476837</ele>
        <time>2016-02-01T09:39:05.000Z</time>
      </trkpt>
      <trkpt lat="46.40383" lon="-0.90388">
        <ele>3.2000000476837</ele>
        <time>2016-02-01T09:39:17.000Z</time>
      </trkpt>
      <trkpt lat="46.40371" lon="-0.90407">
        <ele>3.4000000953674</ele>
        <time>2016-02-01T09:39:29.000Z</time>
      </trkpt>
      <trkpt lat="46.40358" lon="-0.90426">
        <ele>3.4000000953674</ele>
        <time>2016-02-01T09:39:41.000Z</time>
      </trkpt>
      <trkpt lat="46.40346" lon="-0.90446">
        <ele>3.5999999046326</ele>
        <time>2016-02-01T09:39:53.000Z</time>
      </trkpt>
      <trkpt lat="46.40333" lon="-0.90464">
        <ele>3.7999999523163</ele>
        <time>2016-02-01T09:40:06.000Z</time>
      </trkpt>
      <trkpt lat="46.40321" lon="-0.90485">
        <ele>3.7999999523163</ele>
        <time>2016-02-01T09:40:19.000Z</time>
      </trkpt>
      <trkpt lat="46.40308" lon="-0.90505">
        <ele>3.5999999046326</ele>
        <time>2016-02-01T09:40:32.000Z</time>
      </trkpt>
      <trkpt lat="46.40296" lon="-0.90526">
        <ele>3.4000000953674</ele>
        <time>2016-02-01T09:40:45.000Z</time>
      </trkpt>
      <trkpt lat="46.40283" lon="-0.90546">
        <ele>3.2000000476837</ele>
        <time>2016-02-01T09:40:58.000Z</time>
      </trkpt>
      <trkpt lat="46.4027" lon="-0.90567">
        <ele>3</ele>
        <time>2016-02-01T09:41:11.000Z</time>
      </trkpt>
      <trkpt lat="46.40256" lon="-0.90586">
        <ele>3</ele>
        <time>2016-02-01T09:41:23.000Z</time>
      </trkpt>
      <trkpt lat="46.40244" lon="-0.90606">
        <ele>3</ele>
        <time>2016-02-01T09:41:36.000Z</time>
      </trkpt>
      <trkpt lat="46.4023" lon="-0.90625">
        <ele>3</ele>
        <time>2016-02-01T09:41:49.000Z</time>
      </trkpt>
      <trkpt lat="46.40218" lon="-0.90645">
        <ele>3.2000000476837</ele>
        <time>2016-02-01T09:42:01.000Z</time>
      </trkpt>
      <trkpt lat="46.40207" lon="-0.90666">
        <ele>3</ele>
        <time>2016-02-01T09:42:14.000Z</time>
      </trkpt>
      <trkpt lat="46.40195" lon="-0.90686">
        <ele>2.7999999523163</ele>
        <time>2016-02-01T09:42:26.000Z</time>
      </trkpt>
      <trkpt lat="46.40183" lon="-0.90706">
        <ele>2.7999999523163</ele>
        <time>2016-02-01T09:42:39.000Z</time>
      </trkpt>
      <trkpt lat="46.40171" lon="-0.90728">
        <ele>2.5999999046326</ele>
        <time>2016-02-01T09:42:52.000Z</time>
      </trkpt>
      <trkpt lat="46.4016" lon="-0.90749">
        <ele>2.5999999046326</ele>
        <time>2016-02-01T09:43:04.000Z</time>
      </trkpt>
      <trkpt lat="46.40147" lon="-0.9077">
        <ele>2.4000000953674</ele>
        <time>2016-02-01T09:43:16.000Z</time>
      </trkpt>
      <trkpt lat="46.40135" lon="-0.90791">
        <ele>2.4000000953674</ele>
        <time>2016-02-01T09:43:28.000Z</time>
      </trkpt>
      <trkpt lat="46.40124" lon="-0.90812">
        <ele>2.4000000953674</ele>
        <time>2016-02-01T09:43:41.000Z</time>
      </trkpt>
      <trkpt lat="46.40113" lon="-0.90834">
        <ele>3</ele>
        <time>2016-02-01T09:43:54.000Z</time>
      </trkpt>
      <trkpt lat="46.40103" lon="-0.90855">
        <ele>3.7999999523163</ele>
        <time>2016-02-01T09:44:06.000Z</time>
      </trkpt>
      <trkpt lat="46.4009" lon="-0.90873">
        <ele>4.1999998092651</ele>
        <time>2016-02-01T09:44:18.000Z</time>
      </trkpt>
      <trkpt lat="46.40076" lon="-0.9089">
        <ele>4.8000001907349</ele>
        <time>2016-02-01T09:44:30.000Z</time>
      </trkpt>
      <trkpt lat="46.40061" lon="-0.90909">
        <ele>4.4000000953674</ele>
        <time>2016-02-01T09:44:42.000Z</time>
      </trkpt>
      <trkpt lat="46.40047" lon="-0.90927">
        <ele>3.5999999046326</ele>
        <time>2016-02-01T09:44:55.000Z</time>
      </trkpt>
      <trkpt lat="46.40031" lon="-0.90943">
        <ele>3</ele>
        <time>2016-02-01T09:45:08.000Z</time>
      </trkpt>
      <trkpt lat="46.40016" lon="-0.90959">
        <ele>2.2000000476837</ele>
        <time>2016-02-01T09:45:21.000Z</time>
      </trkpt>
      <trkpt lat="46.4" lon="-0.90974">
        <ele>1.3999999761581</ele>
        <time>2016-02-01T09:45:34.000Z</time>
      </trkpt>
      <trkpt lat="46.39984" lon="-0.90987">
        <ele>1</ele>
        <time>2016-02-01T09:45:46.000Z</time>
      </trkpt>
      <trkpt lat="46.39968" lon="-0.91001">
        <ele>1.3999999761581</ele>
        <time>2016-02-01T09:45:58.000Z</time>
      </trkpt>
      <trkpt lat="46.39952" lon="-0.91017">
        <ele>1.7999999523163</ele>
        <time>2016-02-01T09:46:11.000Z</time>
      </trkpt>
      <trkpt lat="46.39937" lon="-0.91032">
        <ele>2</ele>
        <time>2016-02-01T09:46:23.000Z</time>
      </trkpt>
      <trkpt lat="46.39923" lon="-0.91048">
        <ele>2.4000000953674</ele>
        <time>2016-02-01T09:46:36.000Z</time>
      </trkpt>
      <trkpt lat="46.39906" lon="-0.91059">
        <ele>2.7999999523163</ele>
        <time>2016-02-01T09:46:50.000Z</time>
      </trkpt>
      <trkpt lat="46.39899" lon="-0.91064">
        <ele>3</ele>
        <time>2016-02-01T09:47:34.000Z</time>
      </trkpt>
      <trkpt lat="46.399" lon="-0.91065">
        <ele>2.7999999523163</ele>
        <time>2016-02-01T09:49:05.000Z</time>
      </trkpt>
      <trkpt lat="46.399" lon="-0.91068">
        <ele>2.7999999523163</ele>
        <time>2016-02-01T09:49:09.000Z</time>
      </trkpt>
      <trkpt lat="46.399" lon="-0.91066">
        <ele>2.7999999523163</ele>
        <time>2016-02-01T09:49:39.000Z</time>
      </trkpt>
      <trkpt lat="46.399" lon="-0.9107">
        <ele>2.7999999523163</ele>
        <time>2016-02-01T09:50:08.000Z</time>
      </trkpt>
      <trkpt lat="46.39886" lon="-0.91079">
        <ele>2.7999999523163</ele>
        <time>2016-02-01T09:51:02.000Z</time>
      </trkpt>
      <trkpt lat="46.39874" lon="-0.91088">
        <ele>3</ele>
        <time>2016-02-01T09:51:21.000Z</time>
      </trkpt>
      <trkpt lat="46.39859" lon="-0.91104">
        <ele>3</ele>
        <time>2016-02-01T09:51:46.000Z</time>
      </trkpt>
      <trkpt lat="46.39849" lon="-0.91115">
        <ele>2.7999999523163</ele>
        <time>2016-02-01T09:52:48.000Z</time>
      </trkpt>
      <trkpt lat="46.39833" lon="-0.91131">
        <ele>2.7999999523163</ele>
        <time>2016-02-01T09:53:05.000Z</time>
      </trkpt>
      <trkpt lat="46.39826" lon="-0.91139">
        <ele>2.7999999523163</ele>
        <time>2016-02-01T09:53:14.000Z</time>
      </trkpt>
      <trkpt lat="46.39813" lon="-0.91158">
        <ele>2.7999999523163</ele>
        <time>2016-02-01T09:53:29.000Z</time>
      </trkpt>
      <trkpt lat="46.39797" lon="-0.91174">
        <ele>2.4000000953674</ele>
        <time>2016-02-01T09:53:43.000Z</time>
      </trkpt>
      <trkpt lat="46.39782" lon="-0.91189">
        <ele>2</ele>
        <time>2016-02-01T09:53:56.000Z</time>
      </trkpt>
      <trkpt lat="46.39767" lon="-0.91206">
        <ele>1.6000000238419</ele>
        <time>2016-02-01T09:54:10.000Z</time>
      </trkpt>
      <trkpt lat="46.39752" lon="-0.91223">
        <ele>1.2000000476837</ele>
        <time>2016-02-01T09:54:23.000Z</time>
      </trkpt>
      <trkpt lat="46.39737" lon="-0.91237">
        <ele>1</ele>
        <time>2016-02-01T09:54:35.000Z</time>
      </trkpt>
      <trkpt lat="46.39722" lon="-0.91253">
        <ele>1.2000000476837</ele>
        <time>2016-02-01T09:54:47.000Z</time>
      </trkpt>
      <trkpt lat="46.39706" lon="-0.91269">
        <ele>1.3999999761581</ele>
        <time>2016-02-01T09:55:00.000Z</time>
      </trkpt>
      <trkpt lat="46.39691" lon="-0.91285">
        <ele>1.3999999761581</ele>
        <time>2016-02-01T09:55:13.000Z</time>
      </trkpt>
      <trkpt lat="46.39676" lon="-0.91302">
        <ele>1.6000000238419</ele>
        <time>2016-02-01T09:55:26.000Z</time>
      </trkpt>
      <trkpt lat="46.3966" lon="-0.91314">
        <ele>1.7999999523163</ele>
        <time>2016-02-01T09:55:38.000Z</time>
      </trkpt>
      <trkpt lat="46.39644" lon="-0.91327">
        <ele>1.7999999523163</ele>
        <time>2016-02-01T09:55:50.000Z</time>
      </trkpt>
      <trkpt lat="46.39628" lon="-0.91341">
        <ele>2</ele>
        <time>2016-02-01T09:56:03.000Z</time>
      </trkpt>
      <trkpt lat="46.39624" lon="-0.91345">
        <ele>2.2000000476837</ele>
        <time>2016-02-01T09:56:07.000Z</time>
      </trkpt>
      <trkpt lat="46.39608" lon="-0.91359">
        <ele>2.4000000953674</ele>
        <time>2016-02-01T09:56:20.000Z</time>
      </trkpt>
      <trkpt lat="46.39592" lon="-0.91374">
        <ele>2.5999999046326</ele>
        <time>2016-02-01T09:56:33.000Z</time>
      </trkpt>
      <trkpt lat="46.39577" lon="-0.9139">
        <ele>2.7999999523163</ele>
        <time>2016-02-01T09:56:46.000Z</time>
      </trkpt>
      <trkpt lat="46.39563" lon="-0.91406">
        <ele>3.2000000476837</ele>
        <time>2016-02-01T09:56:57.000Z</time>
      </trkpt>
      <trkpt lat="46.39548" lon="-0.91422">
        <ele>3.5999999046326</ele>
        <time>2016-02-01T09:57:10.000Z</time>
      </trkpt>
      <trkpt lat="46.39538" lon="-0.91432">
        <ele>3.7999999523163</ele>
        <time>2016-02-01T09:57:18.000Z</time>
      </trkpt>
      <trkpt lat="46.3953" lon="-0.9144">
        <ele>4</ele>
        <time>2016-02-01T09:57:26.000Z</time>
      </trkpt>
      <trkpt lat="46.39515" lon="-0.91457">
        <ele>4.4000000953674</ele>
        <time>2016-02-01T09:57:40.000Z</time>
      </trkpt>
      <trkpt lat="46.39509" lon="-0.91463">
        <ele>4.5999999046326</ele>
        <time>2016-02-01T09:57:45.000Z</time>
      </trkpt>
      <trkpt lat="46.39493" lon="-0.91477">
        <ele>4.8000001907349</ele>
        <time>2016-02-01T09:57:57.000Z</time>
      </trkpt>
      <trkpt lat="46.3948" lon="-0.91496">
        <ele>4.4000000953674</ele>
        <time>2016-02-01T09:58:09.000Z</time>
      </trkpt>
      <trkpt lat="46.39465" lon="-0.91512">
        <ele>3.7999999523163</ele>
        <time>2016-02-01T09:58:22.000Z</time>
      </trkpt>
      <trkpt lat="46.39451" lon="-0.91529">
        <ele>3.4000000953674</ele>
        <time>2016-02-01T09:58:35.000Z</time>
      </trkpt>
      <trkpt lat="46.39437" lon="-0.91545">
        <ele>2.7999999523163</ele>
        <time>2016-02-01T09:58:48.000Z</time>
      </trkpt>
      <trkpt lat="46.39422" lon="-0.91561">
        <ele>2.2000000476837</ele>
        <time>2016-02-01T09:59:01.000Z</time>
      </trkpt>
      <trkpt lat="46.39407" lon="-0.91578">
        <ele>2</ele>
        <time>2016-02-01T09:59:13.000Z</time>
      </trkpt>
      <trkpt lat="46.39393" lon="-0.91595">
        <ele>2.2000000476837</ele>
        <time>2016-02-01T09:59:25.000Z</time>
      </trkpt>
      <trkpt lat="46.39378" lon="-0.91611">
        <ele>2.4000000953674</ele>
        <time>2016-02-01T09:59:37.000Z</time>
      </trkpt>
      <trkpt lat="46.39362" lon="-0.91625">
        <ele>2.7999999523163</ele>
        <time>2016-02-01T09:59:50.000Z</time>
      </trkpt>
      <trkpt lat="46.39345" lon="-0.91638">
        <ele>3.2000000476837</ele>
        <time>2016-02-01T10:00:02.000Z</time>
      </trkpt>
      <trkpt lat="46.39329" lon="-0.91652">
        <ele>3.2000000476837</ele>
        <time>2016-02-01T10:00:16.000Z</time>
      </trkpt>
      <trkpt lat="46.39312" lon="-0.91663">
        <ele>3.2000000476837</ele>
        <time>2016-02-01T10:00:29.000Z</time>
      </trkpt>
      <trkpt lat="46.39296" lon="-0.91678">
        <ele>2.4000000953674</ele>
        <time>2016-02-01T10:00:42.000Z</time>
      </trkpt>
      <trkpt lat="46.39281" lon="-0.91693">
        <ele>1.7999999523163</ele>
        <time>2016-02-01T10:00:54.000Z</time>
      </trkpt>
      <trkpt lat="46.39266" lon="-0.91708">
        <ele>1</ele>
        <time>2016-02-01T10:01:07.000Z</time>
      </trkpt>
      <trkpt lat="46.39264" lon="-0.9171">
        <ele>0.80000001192093</ele>
        <time>2016-02-01T10:01:09.000Z</time>
      </trkpt>
      <trkpt lat="46.39251" lon="-0.91728">
        <ele>0.40000000596046</ele>
        <time>2016-02-01T10:01:24.000Z</time>
      </trkpt>
      <trkpt lat="46.39238" lon="-0.91747">
        <ele>0.60000002384186</ele>
        <time>2016-02-01T10:01:39.000Z</time>
      </trkpt>
      <trkpt lat="46.39228" lon="-0.91769">
        <ele>1</ele>
        <time>2016-02-01T10:01:52.000Z</time>
      </trkpt>
      <trkpt lat="46.39222" lon="-0.91794">
        <ele>1.6000000238419</ele>
        <time>2016-02-01T10:02:06.000Z</time>
      </trkpt>
      <trkpt lat="46.39216" lon="-0.9182">
        <ele>1.7999999523163</ele>
        <time>2016-02-01T10:02:20.000Z</time>
      </trkpt>
      <trkpt lat="46.39209" lon="-0.91846">
        <ele>1.7999999523163</ele>
        <time>2016-02-01T10:02:34.000Z</time>
      </trkpt>
      <trkpt lat="46.39201" lon="-0.91869">
        <ele>1.6000000238419</ele>
        <time>2016-02-01T10:02:48.000Z</time>
      </trkpt>
      <trkpt lat="46.39198" lon="-0.9188">
        <ele>1.6000000238419</ele>
        <time>2016-02-01T10:02:54.000Z</time>
      </trkpt>
      <trkpt lat="46.39191" lon="-0.91904">
        <ele>1.7999999523163</ele>
        <time>2016-02-01T10:03:07.000Z</time>
      </trkpt>
      <trkpt lat="46.39181" lon="-0.91928">
        <ele>2.2000000476837</ele>
        <time>2016-02-01T10:03:21.000Z</time>
      </trkpt>
      <trkpt lat="46.39172" lon="-0.91953">
        <ele>2.5999999046326</ele>
        <time>2016-02-01T10:03:35.000Z</time>
      </trkpt>
      <trkpt lat="46.39162" lon="-0.91975">
        <ele>2.5999999046326</ele>
        <time>2016-02-01T10:03:48.000Z</time>
      </trkpt>
      <trkpt lat="46.39148" lon="-0.91993">
        <ele>2.7999999523163</ele>
        <time>2016-02-01T10:04:02.000Z</time>
      </trkpt>
      <trkpt lat="46.39132" lon="-0.92007">
        <ele>2.7999999523163</ele>
        <time>2016-02-01T10:04:15.000Z</time>
      </trkpt>
      <trkpt lat="46.39115" lon="-0.92019">
        <ele>2.7999999523163</ele>
        <time>2016-02-01T10:04:29.000Z</time>
      </trkpt>
      <trkpt lat="46.39097" lon="-0.92029">
        <ele>3</ele>
        <time>2016-02-01T10:04:43.000Z</time>
      </trkpt>
      <trkpt lat="46.39079" lon="-0.9204">
        <ele>3</ele>
        <time>2016-02-01T10:04:56.000Z</time>
      </trkpt>
      <trkpt lat="46.39062" lon="-0.92052">
        <ele>3</ele>
        <time>2016-02-01T10:05:09.000Z</time>
      </trkpt>
      <trkpt lat="46.39047" lon="-0.92068">
        <ele>2.7999999523163</ele>
        <time>2016-02-01T10:05:23.000Z</time>
      </trkpt>
      <trkpt lat="46.39034" lon="-0.92087">
        <ele>2.2000000476837</ele>
        <time>2016-02-01T10:05:36.000Z</time>
      </trkpt>
      <trkpt lat="46.39018" lon="-0.92102">
        <ele>2</ele>
        <time>2016-02-01T10:05:49.000Z</time>
      </trkpt>
      <trkpt lat="46.39015" lon="-0.92106">
        <ele>1.7999999523163</ele>
        <time>2016-02-01T10:05:52.000Z</time>
      </trkpt>
      <trkpt lat="46.39013" lon="-0.92107">
        <ele>1.7999999523163</ele>
        <time>2016-02-01T10:05:57.000Z</time>
      </trkpt>
      <trkpt lat="46.38998" lon="-0.92122">
        <ele>1.3999999761581</ele>
        <time>2016-02-01T10:06:10.000Z</time>
      </trkpt>
      <trkpt lat="46.38982" lon="-0.92137">
        <ele>1</ele>
        <time>2016-02-01T10:06:24.000Z</time>
      </trkpt>
      <trkpt lat="46.38965" lon="-0.9215">
        <ele>1.2000000476837</ele>
        <time>2016-02-01T10:06:37.000Z</time>
      </trkpt>
      <trkpt lat="46.38949" lon="-0.92163">
        <ele>1.2000000476837</ele>
        <time>2016-02-01T10:06:49.000Z</time>
      </trkpt>
      <trkpt lat="46.38933" lon="-0.92178">
        <ele>1.3999999761581</ele>
        <time>2016-02-01T10:07:03.000Z</time>
      </trkpt>
      <trkpt lat="46.38917" lon="-0.92193">
        <ele>1.6000000238419</ele>
        <time>2016-02-01T10:07:16.000Z</time>
      </trkpt>
      <trkpt lat="46.38901" lon="-0.92206">
        <ele>1.7999999523163</ele>
        <time>2016-02-01T10:07:28.000Z</time>
      </trkpt>
      <trkpt lat="46.38884" lon="-0.92216">
        <ele>2</ele>
        <time>2016-02-01T10:07:40.000Z</time>
      </trkpt>
      <trkpt lat="46.38867" lon="-0.92224">
        <ele>2</ele>
        <time>2016-02-01T10:07:53.000Z</time>
      </trkpt>
      <trkpt lat="46.38849" lon="-0.92232">
        <ele>1.7999999523163</ele>
        <time>2016-02-01T10:08:06.000Z</time>
      </trkpt>
      <trkpt lat="46.3883" lon="-0.92239">
        <ele>1.7999999523163</ele>
        <time>2016-02-01T10:08:19.000Z</time>
      </trkpt>
      <trkpt lat="46.38812" lon="-0.92244">
        <ele>1.7999999523163</ele>
        <time>2016-02-01T10:08:31.000Z</time>
      </trkpt>
      <trkpt lat="46.38794" lon="-0.9225">
        <ele>2</ele>
        <time>2016-02-01T10:08:44.000Z</time>
      </trkpt>
      <trkpt lat="46.38776" lon="-0.92259">
        <ele>2</ele>
        <time>2016-02-01T10:08:56.000Z</time>
      </trkpt>
      <trkpt lat="46.38759" lon="-0.92272">
        <ele>2</ele>
        <time>2016-02-01T10:09:08.000Z</time>
      </trkpt>
      <trkpt lat="46.38744" lon="-0.92289">
        <ele>2</ele>
        <time>2016-02-01T10:09:20.000Z</time>
      </trkpt>
      <trkpt lat="46.3873" lon="-0.92307">
        <ele>2</ele>
        <time>2016-02-01T10:09:33.000Z</time>
      </trkpt>
      <trkpt lat="46.38729" lon="-0.92308">
        <ele>2</ele>
        <time>2016-02-01T10:09:34.000Z</time>
      </trkpt>
      <trkpt lat="46.38715" lon="-0.92324">
        <ele>2</ele>
        <time>2016-02-01T10:09:49.000Z</time>
      </trkpt>
      <trkpt lat="46.38699" lon="-0.92338">
        <ele>2</ele>
        <time>2016-02-01T10:10:02.000Z</time>
      </trkpt>
      <trkpt lat="46.38696" lon="-0.9234">
        <ele>2</ele>
        <time>2016-02-01T10:10:04.000Z</time>
      </trkpt>
      <trkpt lat="46.38688" lon="-0.92348">
        <ele>2</ele>
        <time>2016-02-01T10:10:10.000Z</time>
      </trkpt>
      <trkpt lat="46.38673" lon="-0.92362">
        <ele>2</ele>
        <time>2016-02-01T10:10:22.000Z</time>
      </trkpt>
      <trkpt lat="46.38657" lon="-0.92375">
        <ele>2</ele>
        <time>2016-02-01T10:10:35.000Z</time>
      </trkpt>
      <trkpt lat="46.38641" lon="-0.92389">
        <ele>2</ele>
        <time>2016-02-01T10:10:48.000Z</time>
      </trkpt>
      <trkpt lat="46.38626" lon="-0.92404">
        <ele>2</ele>
        <time>2016-02-01T10:11:01.000Z</time>
      </trkpt>
      <trkpt lat="46.38614" lon="-0.92416">
        <ele>1.7999999523163</ele>
        <time>2016-02-01T10:11:11.000Z</time>
      </trkpt>
      <trkpt lat="46.38607" lon="-0.92419">
        <ele>1.7999999523163</ele>
        <time>2016-02-01T10:11:16.000Z</time>
      </trkpt>
      <trkpt lat="46.38602" lon="-0.92422">
        <ele>1.7999999523163</ele>
        <time>2016-02-01T10:11:19.000Z</time>
      </trkpt>
      <trkpt lat="46.38593" lon="-0.92424">
        <ele>1.7999999523163</ele>
        <time>2016-02-01T10:11:26.000Z</time>
      </trkpt>
      <trkpt lat="46.38574" lon="-0.9242">
        <ele>2.2000000476837</ele>
        <time>2016-02-01T10:11:38.000Z</time>
      </trkpt>
      <trkpt lat="46.38557" lon="-0.92416">
        <ele>2.4000000953674</ele>
        <time>2016-02-01T10:11:51.000Z</time>
      </trkpt>
      <trkpt lat="46.38548" lon="-0.92415">
        <ele>2.5999999046326</ele>
        <time>2016-02-01T10:11:56.000Z</time>
      </trkpt>
      <trkpt lat="46.38529" lon="-0.92412">
        <ele>2.7999999523163</ele>
        <time>2016-02-01T10:12:07.000Z</time>
      </trkpt>
      <trkpt lat="46.38521" lon="-0.92409">
        <ele>2.7999999523163</ele>
        <time>2016-02-01T10:12:12.000Z</time>
      </trkpt>
      <trkpt lat="46.38505" lon="-0.92399">
        <ele>2.7999999523163</ele>
        <time>2016-02-01T10:12:24.000Z</time>
      </trkpt>
      <trkpt lat="46.38488" lon="-0.92386">
        <ele>3</ele>
        <time>2016-02-01T10:12:36.000Z</time>
      </trkpt>
      <trkpt lat="46.38473" lon="-0.92372">
        <ele>2.7999999523163</ele>
        <time>2016-02-01T10:12:48.000Z</time>
      </trkpt>
      <trkpt lat="46.38456" lon="-0.92363">
        <ele>2.5999999046326</ele>
        <time>2016-02-01T10:13:00.000Z</time>
      </trkpt>
      <trkpt lat="46.38438" lon="-0.92358">
        <ele>2.4000000953674</ele>
        <time>2016-02-01T10:13:12.000Z</time>
      </trkpt>
      <trkpt lat="46.38419" lon="-0.92356">
        <ele>2.2000000476837</ele>
        <time>2016-02-01T10:13:25.000Z</time>
      </trkpt>
      <trkpt lat="46.38399" lon="-0.92355">
        <ele>2</ele>
        <time>2016-02-01T10:13:38.000Z</time>
      </trkpt>
      <trkpt lat="46.38381" lon="-0.92357">
        <ele>2</ele>
        <time>2016-02-01T10:13:50.000Z</time>
      </trkpt>
      <trkpt lat="46.38363" lon="-0.92359">
        <ele>2</ele>
        <time>2016-02-01T10:14:03.000Z</time>
      </trkpt>
      <trkpt lat="46.38344" lon="-0.92362">
        <ele>2</ele>
        <time>2016-02-01T10:14:16.000Z</time>
      </trkpt>
      <trkpt lat="46.38325" lon="-0.92363">
        <ele>2.2000000476837</ele>
        <time>2016-02-01T10:14:28.000Z</time>
      </trkpt>
      <trkpt lat="46.38305" lon="-0.92363">
        <ele>2.2000000476837</ele>
        <time>2016-02-01T10:14:40.000Z</time>
      </trkpt>
      <trkpt lat="46.38286" lon="-0.92359">
        <ele>2</ele>
        <time>2016-02-01T10:14:52.000Z</time>
      </trkpt>
      <trkpt lat="46.38268" lon="-0.92354">
        <ele>1.7999999523163</ele>
        <time>2016-02-01T10:15:04.000Z</time>
      </trkpt>
      <trkpt lat="46.38265" lon="-0.92353">
        <ele>1.7999999523163</ele>
        <time>2016-02-01T10:15:06.000Z</time>
      </trkpt>
      <trkpt lat="46.38259" lon="-0.92351">
        <ele>2</ele>
        <time>2016-02-01T10:15:10.000Z</time>
      </trkpt>
      <trkpt lat="46.3824" lon="-0.92343">
        <ele>2.2000000476837</ele>
        <time>2016-02-01T10:15:22.000Z</time>
      </trkpt>
      <trkpt lat="46.38222" lon="-0.92336">
        <ele>2.4000000953674</ele>
        <time>2016-02-01T10:15:33.000Z</time>
      </trkpt>
      <trkpt lat="46.38205" lon="-0.9233">
        <ele>2.4000000953674</ele>
        <time>2016-02-01T10:15:44.000Z</time>
      </trkpt>
      <trkpt lat="46.38186" lon="-0.92323">
        <ele>2.2000000476837</ele>
        <time>2016-02-01T10:15:56.000Z</time>
      </trkpt>
      <trkpt lat="46.38167" lon="-0.92319">
        <ele>2</ele>
        <time>2016-02-01T10:16:08.000Z</time>
      </trkpt>
      <trkpt lat="46.38149" lon="-0.92313">
        <ele>2</ele>
        <time>2016-02-01T10:16:20.000Z</time>
      </trkpt>
      <trkpt lat="46.38133" lon="-0.923">
        <ele>2</ele>
        <time>2016-02-01T10:16:32.000Z</time>
      </trkpt>
      <trkpt lat="46.38117" lon="-0.92285">
        <ele>1.7999999523163</ele>
        <time>2016-02-01T10:16:44.000Z</time>
      </trkpt>
      <trkpt lat="46.381" lon="-0.92273">
        <ele>1.6000000238419</ele>
        <time>2016-02-01T10:16:54.000Z</time>
      </trkpt>
      <trkpt lat="46.38082" lon="-0.92266">
        <ele>1.7999999523163</ele>
        <time>2016-02-01T10:17:06.000Z</time>
      </trkpt>
      <trkpt lat="46.38064" lon="-0.92266">
        <ele>2</ele>
        <time>2016-02-01T10:17:18.000Z</time>
      </trkpt>
      <trkpt lat="46.38045" lon="-0.92269">
        <ele>2.2000000476837</ele>
        <time>2016-02-01T10:17:29.000Z</time>
      </trkpt>
      <trkpt lat="46.38026" lon="-0.92271">
        <ele>2.4000000953674</ele>
        <time>2016-02-01T10:17:41.000Z</time>
      </trkpt>
      <trkpt lat="46.38007" lon="-0.92264">
        <ele>2.4000000953674</ele>
        <time>2016-02-01T10:17:53.000Z</time>
      </trkpt>
      <trkpt lat="46.37991" lon="-0.9225">
        <ele>2.4000000953674</ele>
        <time>2016-02-01T10:18:04.000Z</time>
      </trkpt>
      <trkpt lat="46.37975" lon="-0.92234">
        <ele>2.2000000476837</ele>
        <time>2016-02-01T10:18:16.000Z</time>
      </trkpt>
      <trkpt lat="46.37959" lon="-0.92222">
        <ele>2</ele>
        <time>2016-02-01T10:18:28.000Z</time>
      </trkpt>
      <trkpt lat="46.37941" lon="-0.92215">
        <ele>2</ele>
        <time>2016-02-01T10:18:40.000Z</time>
      </trkpt>
      <trkpt lat="46.37922" lon="-0.92215">
        <ele>2</ele>
        <time>2016-02-01T10:18:52.000Z</time>
      </trkpt>
      <trkpt lat="46.37903" lon="-0.92216">
        <ele>2</ele>
        <time>2016-02-01T10:19:03.000Z</time>
      </trkpt>
      <trkpt lat="46.37885" lon="-0.92216">
        <ele>2.2000000476837</ele>
        <time>2016-02-01T10:19:14.000Z</time>
      </trkpt>
      <trkpt lat="46.37867" lon="-0.9221">
        <ele>2.4000000953674</ele>
        <time>2016-02-01T10:19:26.000Z</time>
      </trkpt>
      <trkpt lat="46.3785" lon="-0.92203">
        <ele>2.5999999046326</ele>
        <time>2016-02-01T10:19:37.000Z</time>
      </trkpt>
      <trkpt lat="46.3783" lon="-0.92198">
        <ele>2.5999999046326</ele>
        <time>2016-02-01T10:19:49.000Z</time>
      </trkpt>
      <trkpt lat="46.37812" lon="-0.92193">
        <ele>2.5999999046326</ele>
        <time>2016-02-01T10:20:00.000Z</time>
      </trkpt>
      <trkpt lat="46.3781" lon="-0.92192">
        <ele>2.5999999046326</ele>
        <time>2016-02-01T10:20:02.000Z</time>
      </trkpt>
      <trkpt lat="46.37804" lon="-0.92191">
        <ele>2.5999999046326</ele>
        <time>2016-02-01T10:20:06.000Z</time>
      </trkpt>
      <trkpt lat="46.37786" lon="-0.92187">
        <ele>2.5999999046326</ele>
        <time>2016-02-01T10:20:18.000Z</time>
      </trkpt>
      <trkpt lat="46.37767" lon="-0.92185">
        <ele>2.5999999046326</ele>
        <time>2016-02-01T10:20:30.000Z</time>
      </trkpt>
      <trkpt lat="46.37748" lon="-0.92184">
        <ele>2.5999999046326</ele>
        <time>2016-02-01T10:20:42.000Z</time>
      </trkpt>
      <trkpt lat="46.37729" lon="-0.92181">
        <ele>2.4000000953674</ele>
        <time>2016-02-01T10:20:54.000Z</time>
      </trkpt>
      <trkpt lat="46.37711" lon="-0.92178">
        <ele>2.4000000953674</ele>
        <time>2016-02-01T10:21:05.000Z</time>
      </trkpt>
      <trkpt lat="46.37692" lon="-0.92176">
        <ele>2.4000000953674</ele>
        <time>2016-02-01T10:21:17.000Z</time>
      </trkpt>
      <trkpt lat="46.37674" lon="-0.92178">
        <ele>2.5999999046326</ele>
        <time>2016-02-01T10:21:30.000Z</time>
      </trkpt>
      <trkpt lat="46.37657" lon="-0.92187">
        <ele>2.7999999523163</ele>
        <time>2016-02-01T10:21:42.000Z</time>
      </trkpt>
      <trkpt lat="46.3764" lon="-0.92199">
        <ele>2.7999999523163</ele>
        <time>2016-02-01T10:21:54.000Z</time>
      </trkpt>
      <trkpt lat="46.37624" lon="-0.9221">
        <ele>2.4000000953674</ele>
        <time>2016-02-01T10:22:06.000Z</time>
      </trkpt>
      <trkpt lat="46.37605" lon="-0.9222">
        <ele>2</ele>
        <time>2016-02-01T10:22:18.000Z</time>
      </trkpt>
      <trkpt lat="46.37586" lon="-0.92227">
        <ele>1.6000000238419</ele>
        <time>2016-02-01T10:22:30.000Z</time>
      </trkpt>
      <trkpt lat="46.37568" lon="-0.92234">
        <ele>1.2000000476837</ele>
        <time>2016-02-01T10:22:41.000Z</time>
      </trkpt>
      <trkpt lat="46.3755" lon="-0.92241">
        <ele>1.2000000476837</ele>
        <time>2016-02-01T10:22:52.000Z</time>
      </trkpt>
      <trkpt lat="46.37532" lon="-0.92251">
        <ele>1.3999999761581</ele>
        <time>2016-02-01T10:23:04.000Z</time>
      </trkpt>
      <trkpt lat="46.3753" lon="-0.92253">
        <ele>1.3999999761581</ele>
        <time>2016-02-01T10:23:06.000Z</time>
      </trkpt>
      <trkpt lat="46.37513" lon="-0.92265">
        <ele>1.6000000238419</ele>
        <time>2016-02-01T10:23:18.000Z</time>
      </trkpt>
      <trkpt lat="46.37499" lon="-0.92273">
        <ele>1.7999999523163</ele>
        <time>2016-02-01T10:23:27.000Z</time>
      </trkpt>
      <trkpt lat="46.37481" lon="-0.92282">
        <ele>2</ele>
        <time>2016-02-01T10:23:39.000Z</time>
      </trkpt>
      <trkpt lat="46.37477" lon="-0.92286">
        <ele>2.2000000476837</ele>
        <time>2016-02-01T10:23:42.000Z</time>
      </trkpt>
      <trkpt lat="46.37464" lon="-0.92297">
        <ele>2.5999999046326</ele>
        <time>2016-02-01T10:23:52.000Z</time>
      </trkpt>
      <trkpt lat="46.37452" lon="-0.92315">
        <ele>3</ele>
        <time>2016-02-01T10:24:04.000Z</time>
      </trkpt>
      <trkpt lat="46.3744" lon="-0.92336">
        <ele>3.4000000953674</ele>
        <time>2016-02-01T10:24:16.000Z</time>
      </trkpt>
      <trkpt lat="46.37428" lon="-0.92357">
        <ele>4</ele>
        <time>2016-02-01T10:24:28.000Z</time>
      </trkpt>
      <trkpt lat="46.37414" lon="-0.92374">
        <ele>4.4000000953674</ele>
        <time>2016-02-01T10:24:40.000Z</time>
      </trkpt>
      <trkpt lat="46.37408" lon="-0.92379">
        <ele>4.5999999046326</ele>
        <time>2016-02-01T10:24:45.000Z</time>
      </trkpt>
      <trkpt lat="46.3739" lon="-0.92378">
        <ele>5</ele>
        <time>2016-02-01T10:25:05.000Z</time>
      </trkpt>
      <trkpt lat="46.37374" lon="-0.92363">
        <ele>5.1999998092651</ele>
        <time>2016-02-01T10:25:19.000Z</time>
      </trkpt>
      <trkpt lat="46.37357" lon="-0.92351">
        <ele>5.4000000953674</ele>
        <time>2016-02-01T10:25:31.000Z</time>
      </trkpt>
      <trkpt lat="46.37341" lon="-0.9234">
        <ele>5.5999999046326</ele>
        <time>2016-02-01T10:25:43.000Z</time>
      </trkpt>
      <trkpt lat="46.37324" lon="-0.92333">
        <ele>5.8000001907349</ele>
        <time>2016-02-01T10:25:57.000Z</time>
      </trkpt>
      <trkpt lat="46.37319" lon="-0.92308">
        <ele>6</ele>
        <time>2016-02-01T10:26:11.000Z</time>
      </trkpt>
      <trkpt lat="46.37313" lon="-0.92282">
        <ele>6</ele>
        <time>2016-02-01T10:26:24.000Z</time>
      </trkpt>
      <trkpt lat="46.37304" lon="-0.92269">
        <ele>6.1999998092651</ele>
        <time>2016-02-01T10:26:32.000Z</time>
      </trkpt>
      <trkpt lat="46.37301" lon="-0.92261">
        <ele>6.4000000953674</ele>
        <time>2016-02-01T10:26:36.000Z</time>
      </trkpt>
      <trkpt lat="46.37292" lon="-0.92237">
        <ele>6.8000001907349</ele>
        <time>2016-02-01T10:26:48.000Z</time>
      </trkpt>
      <trkpt lat="46.37288" lon="-0.9221">
        <ele>7.1999998092651</ele>
        <time>2016-02-01T10:27:00.000Z</time>
      </trkpt>
      <trkpt lat="46.37289" lon="-0.92181">
        <ele>7.1999998092651</ele>
        <time>2016-02-01T10:27:12.000Z</time>
      </trkpt>
      <trkpt lat="46.37288" lon="-0.92154">
        <ele>7.4000000953674</ele>
        <time>2016-02-01T10:27:24.000Z</time>
      </trkpt>
      <trkpt lat="46.37287" lon="-0.92127">
        <ele>7.4000000953674</ele>
        <time>2016-02-01T10:27:36.000Z</time>
      </trkpt>
      <trkpt lat="46.37286" lon="-0.921">
        <ele>7.1999998092651</ele>
        <time>2016-02-01T10:27:48.000Z</time>
      </trkpt>
      <trkpt lat="46.37286" lon="-0.92073">
        <ele>7</ele>
        <time>2016-02-01T10:28:00.000Z</time>
      </trkpt>
      <trkpt lat="46.37286" lon="-0.92047">
        <ele>7.1999998092651</ele>
        <time>2016-02-01T10:28:12.000Z</time>
      </trkpt>
      <trkpt lat="46.37286" lon="-0.92043">
        <ele>7.1999998092651</ele>
        <time>2016-02-01T10:28:14.000Z</time>
      </trkpt>
      <trkpt lat="46.37286" lon="-0.92039">
        <ele>7.4000000953674</ele>
        <time>2016-02-01T10:28:16.000Z</time>
      </trkpt>
      <trkpt lat="46.3728" lon="-0.92017">
        <ele>8</ele>
        <time>2016-02-01T10:28:26.000Z</time>
      </trkpt>
      <trkpt lat="46.37277" lon="-0.91991">
        <ele>9</ele>
        <time>2016-02-01T10:28:37.000Z</time>
      </trkpt>
      <trkpt lat="46.37274" lon="-0.91964">
        <ele>9.8000001907349</ele>
        <time>2016-02-01T10:28:49.000Z</time>
      </trkpt>
      <trkpt lat="46.37272" lon="-0.91937">
        <ele>9.6000003814697</ele>
        <time>2016-02-01T10:29:01.000Z</time>
      </trkpt>
      <trkpt lat="46.37271" lon="-0.91914">
        <ele>9.8000001907349</ele>
        <time>2016-02-01T10:29:11.000Z</time>
      </trkpt>
      <trkpt lat="46.3727" lon="-0.91888">
        <ele>10.39999961853</ele>
        <time>2016-02-01T10:29:23.000Z</time>
      </trkpt>
      <trkpt lat="46.37263" lon="-0.91864">
        <ele>12.39999961853</ele>
        <time>2016-02-01T10:29:36.000Z</time>
      </trkpt>
      <trkpt lat="46.37256" lon="-0.91847">
        <ele>14</ele>
        <time>2016-02-01T10:29:45.000Z</time>
      </trkpt>
      <trkpt lat="46.3725" lon="-0.91843">
        <ele>14.60000038147</ele>
        <time>2016-02-01T10:29:49.000Z</time>
      </trkpt>
      <trkpt lat="46.37233" lon="-0.91851">
        <ele>16.200000762939</ele>
        <time>2016-02-01T10:30:02.000Z</time>
      </trkpt>
      <trkpt lat="46.37226" lon="-0.91853">
        <ele>16.60000038147</ele>
        <time>2016-02-01T10:30:09.000Z</time>
      </trkpt>
      <trkpt lat="46.37215" lon="-0.91839">
        <ele>17.799999237061</ele>
        <time>2016-02-01T10:30:27.000Z</time>
      </trkpt>
      <trkpt lat="46.37218" lon="-0.91836">
        <ele>17.799999237061</ele>
        <time>2016-02-01T10:31:00.000Z</time>
      </trkpt>
    </trkseg>
  </trk>
</gpx>